<?xml version="1.0" encoding="UTF-8" standalone="no" ?>
<gpx xmlns="http://www.topografix.com/GPX/1/1" xmlns:xsi="http://www.w3.org/2001/XMLSchema-instance" xsi:schemaLocation="http://www.topografix.com/GPX/1/1 http://www.topografix.com/GPX/1/1/gpx.xsd" version="1.1" creator="VisuGPX - https://www.visugpx.com">
  <metadata>
    <name>83-M-Tourves</name>
    <desc><![CDATA[83-M-Tourves : les gorges du Caramy
Mercredi 9 mai 2012]]></desc>
  </metadata>
  <trk>
    <name><![CDATA[2012-05-09-tourves]]></name>
    <trkseg>
      <trkpt lat="43.40596" lon="5.92444">
        <ele>296.525513</ele>
        <time>2012-05-09T12:28:23Z</time>
      </trkpt>
      <trkpt lat="43.4059" lon="5.92436">
        <ele>292.54007</ele>
        <time>2012-05-09T12:30:05Z</time>
      </trkpt>
      <trkpt lat="43.40589" lon="5.92436">
        <ele>292.57724</ele>
        <time>2012-05-09T12:30:06Z</time>
      </trkpt>
      <trkpt lat="43.40588" lon="5.92423">
        <ele>292.899994</ele>
        <time>2012-05-09T12:31:24Z</time>
      </trkpt>
      <trkpt lat="43.4059" lon="5.92433">
        <ele>292.600006</ele>
        <time>2012-05-09T12:33:01Z</time>
      </trkpt>
      <trkpt lat="43.4059" lon="5.92433">
        <ele>292.600006</ele>
        <time>2012-05-09T12:33:02Z</time>
      </trkpt>
      <trkpt lat="43.40592" lon="5.92411">
        <ele>293.100006</ele>
        <time>2012-05-09T12:34:05Z</time>
      </trkpt>
      <trkpt lat="43.40592" lon="5.92409">
        <ele>293.100006</ele>
        <time>2012-05-09T12:34:06Z</time>
      </trkpt>
      <trkpt lat="43.40582" lon="5.92396">
        <ele>292.899994</ele>
        <time>2012-05-09T12:34:20Z</time>
      </trkpt>
      <trkpt lat="43.40574" lon="5.92395">
        <ele>292.600006</ele>
        <time>2012-05-09T12:34:27Z</time>
      </trkpt>
      <trkpt lat="43.40562" lon="5.92394">
        <ele>292</ele>
        <time>2012-05-09T12:34:40Z</time>
      </trkpt>
      <trkpt lat="43.40545" lon="5.92399">
        <ele>292.700012</ele>
        <time>2012-05-09T12:34:49Z</time>
      </trkpt>
      <trkpt lat="43.40546" lon="5.92411">
        <ele>292.399994</ele>
        <time>2012-05-09T12:35:00Z</time>
      </trkpt>
      <trkpt lat="43.40547" lon="5.92423">
        <ele>292.200012</ele>
        <time>2012-05-09T12:35:12Z</time>
      </trkpt>
      <trkpt lat="43.40548" lon="5.92424">
        <ele>292.200012</ele>
        <time>2012-05-09T12:35:13Z</time>
      </trkpt>
      <trkpt lat="43.40544" lon="5.92445">
        <ele>291.399994</ele>
        <time>2012-05-09T12:35:28Z</time>
      </trkpt>
      <trkpt lat="43.40539" lon="5.92453">
        <ele>291.5</ele>
        <time>2012-05-09T12:35:35Z</time>
      </trkpt>
      <trkpt lat="43.40534" lon="5.92462">
        <ele>291.700012</ele>
        <time>2012-05-09T12:35:42Z</time>
      </trkpt>
      <trkpt lat="43.40527" lon="5.92468">
        <ele>291.100006</ele>
        <time>2012-05-09T12:35:49Z</time>
      </trkpt>
      <trkpt lat="43.40521" lon="5.92474">
        <ele>291.200012</ele>
        <time>2012-05-09T12:35:54Z</time>
      </trkpt>
      <trkpt lat="43.40514" lon="5.92482">
        <ele>291</ele>
        <time>2012-05-09T12:36:02Z</time>
      </trkpt>
      <trkpt lat="43.40508" lon="5.92492">
        <ele>291.200012</ele>
        <time>2012-05-09T12:36:10Z</time>
      </trkpt>
      <trkpt lat="43.40503" lon="5.925">
        <ele>291.299988</ele>
        <time>2012-05-09T12:36:17Z</time>
      </trkpt>
      <trkpt lat="43.40502" lon="5.92501">
        <ele>290.799988</ele>
        <time>2012-05-09T12:36:18Z</time>
      </trkpt>
      <trkpt lat="43.40494" lon="5.92519">
        <ele>290.399994</ele>
        <time>2012-05-09T12:36:30Z</time>
      </trkpt>
      <trkpt lat="43.4049" lon="5.92529">
        <ele>289.700012</ele>
        <time>2012-05-09T12:36:37Z</time>
      </trkpt>
      <trkpt lat="43.40486" lon="5.92539">
        <ele>289.399994</ele>
        <time>2012-05-09T12:36:44Z</time>
      </trkpt>
      <trkpt lat="43.40482" lon="5.92549">
        <ele>289.600006</ele>
        <time>2012-05-09T12:36:51Z</time>
      </trkpt>
      <trkpt lat="43.40479" lon="5.9256">
        <ele>289.299988</ele>
        <time>2012-05-09T12:36:58Z</time>
      </trkpt>
      <trkpt lat="43.40475" lon="5.92569">
        <ele>289.399994</ele>
        <time>2012-05-09T12:37:05Z</time>
      </trkpt>
      <trkpt lat="43.4047" lon="5.92579">
        <ele>289.600006</ele>
        <time>2012-05-09T12:37:14Z</time>
      </trkpt>
      <trkpt lat="43.40465" lon="5.92589">
        <ele>288.700012</ele>
        <time>2012-05-09T12:37:22Z</time>
      </trkpt>
      <trkpt lat="43.40465" lon="5.92591">
        <ele>288.899994</ele>
        <time>2012-05-09T12:37:23Z</time>
      </trkpt>
      <trkpt lat="43.40458" lon="5.92611">
        <ele>289</ele>
        <time>2012-05-09T12:37:36Z</time>
      </trkpt>
      <trkpt lat="43.40454" lon="5.92621">
        <ele>288.700012</ele>
        <time>2012-05-09T12:37:43Z</time>
      </trkpt>
      <trkpt lat="43.40449" lon="5.92632">
        <ele>288.700012</ele>
        <time>2012-05-09T12:37:50Z</time>
      </trkpt>
      <trkpt lat="43.40446" lon="5.92643">
        <ele>288.799988</ele>
        <time>2012-05-09T12:37:57Z</time>
      </trkpt>
      <trkpt lat="43.40441" lon="5.92653">
        <ele>288.600006</ele>
        <time>2012-05-09T12:38:05Z</time>
      </trkpt>
      <trkpt lat="43.40437" lon="5.92662">
        <ele>289</ele>
        <time>2012-05-09T12:38:11Z</time>
      </trkpt>
      <trkpt lat="43.40432" lon="5.92671">
        <ele>288.5</ele>
        <time>2012-05-09T12:38:18Z</time>
      </trkpt>
      <trkpt lat="43.40428" lon="5.92682">
        <ele>288.399994</ele>
        <time>2012-05-09T12:38:26Z</time>
      </trkpt>
      <trkpt lat="43.40427" lon="5.92683">
        <ele>288.299988</ele>
        <time>2012-05-09T12:38:27Z</time>
      </trkpt>
      <trkpt lat="43.40414" lon="5.92696">
        <ele>287.5</ele>
        <time>2012-05-09T12:38:42Z</time>
      </trkpt>
      <trkpt lat="43.40406" lon="5.92695">
        <ele>287.799988</ele>
        <time>2012-05-09T12:38:48Z</time>
      </trkpt>
      <trkpt lat="43.40397" lon="5.92692">
        <ele>288</ele>
        <time>2012-05-09T12:38:54Z</time>
      </trkpt>
      <trkpt lat="43.40389" lon="5.92688">
        <ele>288.100006</ele>
        <time>2012-05-09T12:39:00Z</time>
      </trkpt>
      <trkpt lat="43.40382" lon="5.92684">
        <ele>288.299988</ele>
        <time>2012-05-09T12:39:06Z</time>
      </trkpt>
      <trkpt lat="43.40374" lon="5.9268">
        <ele>288.200012</ele>
        <time>2012-05-09T12:39:12Z</time>
      </trkpt>
      <trkpt lat="43.40368" lon="5.92673">
        <ele>288.5</ele>
        <time>2012-05-09T12:39:19Z</time>
      </trkpt>
      <trkpt lat="43.4036" lon="5.92668">
        <ele>288.5</ele>
        <time>2012-05-09T12:39:25Z</time>
      </trkpt>
      <trkpt lat="43.40353" lon="5.92665">
        <ele>288.600006</ele>
        <time>2012-05-09T12:39:31Z</time>
      </trkpt>
      <trkpt lat="43.40352" lon="5.92664">
        <ele>288.700012</ele>
        <time>2012-05-09T12:39:32Z</time>
      </trkpt>
      <trkpt lat="43.40338" lon="5.92656">
        <ele>289.100006</ele>
        <time>2012-05-09T12:39:44Z</time>
      </trkpt>
      <trkpt lat="43.4033" lon="5.9265">
        <ele>289.399994</ele>
        <time>2012-05-09T12:39:51Z</time>
      </trkpt>
      <trkpt lat="43.40323" lon="5.92645">
        <ele>289.700012</ele>
        <time>2012-05-09T12:39:58Z</time>
      </trkpt>
      <trkpt lat="43.40315" lon="5.92641">
        <ele>289.399994</ele>
        <time>2012-05-09T12:40:04Z</time>
      </trkpt>
      <trkpt lat="43.40307" lon="5.92638">
        <ele>290</ele>
        <time>2012-05-09T12:40:12Z</time>
      </trkpt>
      <trkpt lat="43.40299" lon="5.92641">
        <ele>289.700012</ele>
        <time>2012-05-09T12:40:20Z</time>
      </trkpt>
      <trkpt lat="43.40292" lon="5.92647">
        <ele>289.899994</ele>
        <time>2012-05-09T12:40:28Z</time>
      </trkpt>
      <trkpt lat="43.40285" lon="5.92654">
        <ele>289.5</ele>
        <time>2012-05-09T12:40:34Z</time>
      </trkpt>
      <trkpt lat="43.40284" lon="5.92655">
        <ele>289.399994</ele>
        <time>2012-05-09T12:40:35Z</time>
      </trkpt>
      <trkpt lat="43.40271" lon="5.92663">
        <ele>288.399994</ele>
        <time>2012-05-09T12:40:48Z</time>
      </trkpt>
      <trkpt lat="43.40264" lon="5.92671">
        <ele>289</ele>
        <time>2012-05-09T12:40:55Z</time>
      </trkpt>
      <trkpt lat="43.40257" lon="5.92679">
        <ele>288.600006</ele>
        <time>2012-05-09T12:41:01Z</time>
      </trkpt>
      <trkpt lat="43.40252" lon="5.92687">
        <ele>288.5</ele>
        <time>2012-05-09T12:41:08Z</time>
      </trkpt>
      <trkpt lat="43.40247" lon="5.92696">
        <ele>288.5</ele>
        <time>2012-05-09T12:41:14Z</time>
      </trkpt>
      <trkpt lat="43.40241" lon="5.92704">
        <ele>288.899994</ele>
        <time>2012-05-09T12:41:21Z</time>
      </trkpt>
      <trkpt lat="43.40236" lon="5.92713">
        <ele>289.200012</ele>
        <time>2012-05-09T12:41:28Z</time>
      </trkpt>
      <trkpt lat="43.4023" lon="5.92719">
        <ele>289.200012</ele>
        <time>2012-05-09T12:41:35Z</time>
      </trkpt>
      <trkpt lat="43.40223" lon="5.92726">
        <ele>289.299988</ele>
        <time>2012-05-09T12:41:42Z</time>
      </trkpt>
      <trkpt lat="43.40223" lon="5.92727">
        <ele>289.100006</ele>
        <time>2012-05-09T12:41:43Z</time>
      </trkpt>
      <trkpt lat="43.40212" lon="5.92744">
        <ele>289.399994</ele>
        <time>2012-05-09T12:41:56Z</time>
      </trkpt>
      <trkpt lat="43.40206" lon="5.92753">
        <ele>289.799988</ele>
        <time>2012-05-09T12:42:02Z</time>
      </trkpt>
      <trkpt lat="43.40201" lon="5.92762">
        <ele>289.899994</ele>
        <time>2012-05-09T12:42:09Z</time>
      </trkpt>
      <trkpt lat="43.40195" lon="5.92771">
        <ele>290.200012</ele>
        <time>2012-05-09T12:42:17Z</time>
      </trkpt>
      <trkpt lat="43.40189" lon="5.9278">
        <ele>290.600006</ele>
        <time>2012-05-09T12:42:25Z</time>
      </trkpt>
      <trkpt lat="43.40183" lon="5.92789">
        <ele>290.200012</ele>
        <time>2012-05-09T12:42:32Z</time>
      </trkpt>
      <trkpt lat="43.40178" lon="5.92798">
        <ele>290.200012</ele>
        <time>2012-05-09T12:42:39Z</time>
      </trkpt>
      <trkpt lat="43.40172" lon="5.92806">
        <ele>290.600006</ele>
        <time>2012-05-09T12:42:46Z</time>
      </trkpt>
      <trkpt lat="43.40171" lon="5.92807">
        <ele>290.899994</ele>
        <time>2012-05-09T12:42:47Z</time>
      </trkpt>
      <trkpt lat="43.4016" lon="5.92822">
        <ele>291.399994</ele>
        <time>2012-05-09T12:42:59Z</time>
      </trkpt>
      <trkpt lat="43.40154" lon="5.92829">
        <ele>291.5</ele>
        <time>2012-05-09T12:43:05Z</time>
      </trkpt>
      <trkpt lat="43.40148" lon="5.92837">
        <ele>291.299988</ele>
        <time>2012-05-09T12:43:13Z</time>
      </trkpt>
      <trkpt lat="43.40141" lon="5.92844">
        <ele>291.299988</ele>
        <time>2012-05-09T12:43:22Z</time>
      </trkpt>
      <trkpt lat="43.40134" lon="5.92849">
        <ele>291.600006</ele>
        <time>2012-05-09T12:43:30Z</time>
      </trkpt>
      <trkpt lat="43.40128" lon="5.92858">
        <ele>291.600006</ele>
        <time>2012-05-09T12:43:37Z</time>
      </trkpt>
      <trkpt lat="43.40122" lon="5.92866">
        <ele>292.200012</ele>
        <time>2012-05-09T12:43:44Z</time>
      </trkpt>
      <trkpt lat="43.40116" lon="5.92874">
        <ele>291.899994</ele>
        <time>2012-05-09T12:43:51Z</time>
      </trkpt>
      <trkpt lat="43.40115" lon="5.92875">
        <ele>291.799988</ele>
        <time>2012-05-09T12:43:52Z</time>
      </trkpt>
      <trkpt lat="43.40103" lon="5.9289">
        <ele>292.399994</ele>
        <time>2012-05-09T12:44:05Z</time>
      </trkpt>
      <trkpt lat="43.40097" lon="5.92897">
        <ele>292.899994</ele>
        <time>2012-05-09T12:44:13Z</time>
      </trkpt>
      <trkpt lat="43.4009" lon="5.92905">
        <ele>292.5</ele>
        <time>2012-05-09T12:44:20Z</time>
      </trkpt>
      <trkpt lat="43.40084" lon="5.92913">
        <ele>292.700012</ele>
        <time>2012-05-09T12:44:27Z</time>
      </trkpt>
      <trkpt lat="43.40077" lon="5.92921">
        <ele>293</ele>
        <time>2012-05-09T12:44:35Z</time>
      </trkpt>
      <trkpt lat="43.40071" lon="5.92928">
        <ele>293.100006</ele>
        <time>2012-05-09T12:44:42Z</time>
      </trkpt>
      <trkpt lat="43.40064" lon="5.92934">
        <ele>293.600006</ele>
        <time>2012-05-09T12:44:49Z</time>
      </trkpt>
      <trkpt lat="43.40057" lon="5.92941">
        <ele>294.200012</ele>
        <time>2012-05-09T12:44:58Z</time>
      </trkpt>
      <trkpt lat="43.40057" lon="5.92942">
        <ele>294.200012</ele>
        <time>2012-05-09T12:44:59Z</time>
      </trkpt>
      <trkpt lat="43.40045" lon="5.92955">
        <ele>294.700012</ele>
        <time>2012-05-09T12:45:11Z</time>
      </trkpt>
      <trkpt lat="43.40039" lon="5.92964">
        <ele>295.200012</ele>
        <time>2012-05-09T12:45:18Z</time>
      </trkpt>
      <trkpt lat="43.40033" lon="5.92972">
        <ele>295.299988</ele>
        <time>2012-05-09T12:45:25Z</time>
      </trkpt>
      <trkpt lat="43.40027" lon="5.92979">
        <ele>295.399994</ele>
        <time>2012-05-09T12:45:33Z</time>
      </trkpt>
      <trkpt lat="43.40022" lon="5.9299">
        <ele>295.700012</ele>
        <time>2012-05-09T12:45:41Z</time>
      </trkpt>
      <trkpt lat="43.40016" lon="5.92997">
        <ele>295.5</ele>
        <time>2012-05-09T12:45:48Z</time>
      </trkpt>
      <trkpt lat="43.40009" lon="5.93005">
        <ele>295.5</ele>
        <time>2012-05-09T12:45:55Z</time>
      </trkpt>
      <trkpt lat="43.40002" lon="5.93011">
        <ele>295.799988</ele>
        <time>2012-05-09T12:46:02Z</time>
      </trkpt>
      <trkpt lat="43.40001" lon="5.93012">
        <ele>296.200012</ele>
        <time>2012-05-09T12:46:03Z</time>
      </trkpt>
      <trkpt lat="43.39988" lon="5.93026">
        <ele>295.899994</ele>
        <time>2012-05-09T12:46:16Z</time>
      </trkpt>
      <trkpt lat="43.39982" lon="5.93032">
        <ele>295.799988</ele>
        <time>2012-05-09T12:46:21Z</time>
      </trkpt>
      <trkpt lat="43.39974" lon="5.93038">
        <ele>295.700012</ele>
        <time>2012-05-09T12:46:28Z</time>
      </trkpt>
      <trkpt lat="43.39967" lon="5.93045">
        <ele>295.899994</ele>
        <time>2012-05-09T12:46:35Z</time>
      </trkpt>
      <trkpt lat="43.3996" lon="5.93051">
        <ele>295.299988</ele>
        <time>2012-05-09T12:46:43Z</time>
      </trkpt>
      <trkpt lat="43.39954" lon="5.93059">
        <ele>294.600006</ele>
        <time>2012-05-09T12:46:51Z</time>
      </trkpt>
      <trkpt lat="43.39949" lon="5.93067">
        <ele>293.899994</ele>
        <time>2012-05-09T12:46:57Z</time>
      </trkpt>
      <trkpt lat="43.39943" lon="5.93074">
        <ele>293.899994</ele>
        <time>2012-05-09T12:47:03Z</time>
      </trkpt>
      <trkpt lat="43.39942" lon="5.93075">
        <ele>293.799988</ele>
        <time>2012-05-09T12:47:04Z</time>
      </trkpt>
      <trkpt lat="43.3993" lon="5.9309">
        <ele>293.299988</ele>
        <time>2012-05-09T12:47:17Z</time>
      </trkpt>
      <trkpt lat="43.39924" lon="5.93098">
        <ele>292.899994</ele>
        <time>2012-05-09T12:47:24Z</time>
      </trkpt>
      <trkpt lat="43.3992" lon="5.93108">
        <ele>292.799988</ele>
        <time>2012-05-09T12:47:31Z</time>
      </trkpt>
      <trkpt lat="43.39915" lon="5.93118">
        <ele>292.899994</ele>
        <time>2012-05-09T12:47:39Z</time>
      </trkpt>
      <trkpt lat="43.39912" lon="5.93128">
        <ele>292.5</ele>
        <time>2012-05-09T12:47:45Z</time>
      </trkpt>
      <trkpt lat="43.39908" lon="5.93138">
        <ele>292.799988</ele>
        <time>2012-05-09T12:47:52Z</time>
      </trkpt>
      <trkpt lat="43.39904" lon="5.93147">
        <ele>293.100006</ele>
        <time>2012-05-09T12:47:58Z</time>
      </trkpt>
      <trkpt lat="43.399" lon="5.93157">
        <ele>293</ele>
        <time>2012-05-09T12:48:04Z</time>
      </trkpt>
      <trkpt lat="43.39899" lon="5.93158">
        <ele>292.700012</ele>
        <time>2012-05-09T12:48:05Z</time>
      </trkpt>
      <trkpt lat="43.39889" lon="5.93173">
        <ele>292.5</ele>
        <time>2012-05-09T12:48:18Z</time>
      </trkpt>
      <trkpt lat="43.39883" lon="5.93181">
        <ele>292.899994</ele>
        <time>2012-05-09T12:48:25Z</time>
      </trkpt>
      <trkpt lat="43.39877" lon="5.93189">
        <ele>292.899994</ele>
        <time>2012-05-09T12:48:32Z</time>
      </trkpt>
      <trkpt lat="43.3987" lon="5.93195">
        <ele>292.799988</ele>
        <time>2012-05-09T12:48:40Z</time>
      </trkpt>
      <trkpt lat="43.39864" lon="5.93204">
        <ele>292.600006</ele>
        <time>2012-05-09T12:48:46Z</time>
      </trkpt>
      <trkpt lat="43.39858" lon="5.93211">
        <ele>293.200012</ele>
        <time>2012-05-09T12:48:52Z</time>
      </trkpt>
      <trkpt lat="43.39852" lon="5.93218">
        <ele>294.200012</ele>
        <time>2012-05-09T12:49:00Z</time>
      </trkpt>
      <trkpt lat="43.39847" lon="5.93228">
        <ele>295</ele>
        <time>2012-05-09T12:49:09Z</time>
      </trkpt>
      <trkpt lat="43.39846" lon="5.93229">
        <ele>295.200012</ele>
        <time>2012-05-09T12:49:10Z</time>
      </trkpt>
      <trkpt lat="43.39837" lon="5.93247">
        <ele>295.5</ele>
        <time>2012-05-09T12:49:24Z</time>
      </trkpt>
      <trkpt lat="43.3983" lon="5.93254">
        <ele>295.399994</ele>
        <time>2012-05-09T12:49:30Z</time>
      </trkpt>
      <trkpt lat="43.39824" lon="5.9326">
        <ele>295.799988</ele>
        <time>2012-05-09T12:49:38Z</time>
      </trkpt>
      <trkpt lat="43.39818" lon="5.93268">
        <ele>295.399994</ele>
        <time>2012-05-09T12:49:44Z</time>
      </trkpt>
      <trkpt lat="43.39812" lon="5.93276">
        <ele>294</ele>
        <time>2012-05-09T12:49:50Z</time>
      </trkpt>
      <trkpt lat="43.39806" lon="5.93284">
        <ele>293.399994</ele>
        <time>2012-05-09T12:49:58Z</time>
      </trkpt>
      <trkpt lat="43.398" lon="5.9329">
        <ele>293.100006</ele>
        <time>2012-05-09T12:50:04Z</time>
      </trkpt>
      <trkpt lat="43.39792" lon="5.93296">
        <ele>292.899994</ele>
        <time>2012-05-09T12:50:11Z</time>
      </trkpt>
      <trkpt lat="43.39791" lon="5.93296">
        <ele>292.899994</ele>
        <time>2012-05-09T12:50:12Z</time>
      </trkpt>
      <trkpt lat="43.39779" lon="5.93308">
        <ele>292.700012</ele>
        <time>2012-05-09T12:50:24Z</time>
      </trkpt>
      <trkpt lat="43.39772" lon="5.93315">
        <ele>292.299988</ele>
        <time>2012-05-09T12:50:31Z</time>
      </trkpt>
      <trkpt lat="43.39765" lon="5.93323">
        <ele>292</ele>
        <time>2012-05-09T12:50:37Z</time>
      </trkpt>
      <trkpt lat="43.3976" lon="5.93331">
        <ele>292.100006</ele>
        <time>2012-05-09T12:50:44Z</time>
      </trkpt>
      <trkpt lat="43.39754" lon="5.93339">
        <ele>292</ele>
        <time>2012-05-09T12:50:50Z</time>
      </trkpt>
      <trkpt lat="43.39749" lon="5.93348">
        <ele>291.700012</ele>
        <time>2012-05-09T12:50:57Z</time>
      </trkpt>
      <trkpt lat="43.39743" lon="5.93356">
        <ele>291.600006</ele>
        <time>2012-05-09T12:51:04Z</time>
      </trkpt>
      <trkpt lat="43.39738" lon="5.93365">
        <ele>291.600006</ele>
        <time>2012-05-09T12:51:10Z</time>
      </trkpt>
      <trkpt lat="43.39732" lon="5.93374">
        <ele>291.899994</ele>
        <time>2012-05-09T12:51:18Z</time>
      </trkpt>
      <trkpt lat="43.39731" lon="5.93375">
        <ele>291.799988</ele>
        <time>2012-05-09T12:51:19Z</time>
      </trkpt>
      <trkpt lat="43.39718" lon="5.93387">
        <ele>291.299988</ele>
        <time>2012-05-09T12:51:32Z</time>
      </trkpt>
      <trkpt lat="43.39711" lon="5.93393">
        <ele>291.100006</ele>
        <time>2012-05-09T12:51:39Z</time>
      </trkpt>
      <trkpt lat="43.39703" lon="5.93398">
        <ele>291.200012</ele>
        <time>2012-05-09T12:51:44Z</time>
      </trkpt>
      <trkpt lat="43.39696" lon="5.93404">
        <ele>291.100006</ele>
        <time>2012-05-09T12:51:51Z</time>
      </trkpt>
      <trkpt lat="43.39687" lon="5.93406">
        <ele>291.399994</ele>
        <time>2012-05-09T12:51:58Z</time>
      </trkpt>
      <trkpt lat="43.39679" lon="5.93407">
        <ele>290.299988</ele>
        <time>2012-05-09T12:52:06Z</time>
      </trkpt>
      <trkpt lat="43.3967" lon="5.93409">
        <ele>290.5</ele>
        <time>2012-05-09T12:52:12Z</time>
      </trkpt>
      <trkpt lat="43.39662" lon="5.93411">
        <ele>290.5</ele>
        <time>2012-05-09T12:52:18Z</time>
      </trkpt>
      <trkpt lat="43.39653" lon="5.93411">
        <ele>290.100006</ele>
        <time>2012-05-09T12:52:26Z</time>
      </trkpt>
      <trkpt lat="43.39652" lon="5.93411">
        <ele>290.100006</ele>
        <time>2012-05-09T12:52:27Z</time>
      </trkpt>
      <trkpt lat="43.39637" lon="5.93412">
        <ele>290</ele>
        <time>2012-05-09T12:52:39Z</time>
      </trkpt>
      <trkpt lat="43.39629" lon="5.9341">
        <ele>290.399994</ele>
        <time>2012-05-09T12:52:46Z</time>
      </trkpt>
      <trkpt lat="43.39621" lon="5.93409">
        <ele>289.700012</ele>
        <time>2012-05-09T12:52:52Z</time>
      </trkpt>
      <trkpt lat="43.39612" lon="5.93407">
        <ele>290</ele>
        <time>2012-05-09T12:52:59Z</time>
      </trkpt>
      <trkpt lat="43.39604" lon="5.93407">
        <ele>290.200012</ele>
        <time>2012-05-09T12:53:06Z</time>
      </trkpt>
      <trkpt lat="43.39596" lon="5.93408">
        <ele>290.399994</ele>
        <time>2012-05-09T12:53:12Z</time>
      </trkpt>
      <trkpt lat="43.39588" lon="5.9341">
        <ele>291</ele>
        <time>2012-05-09T12:53:18Z</time>
      </trkpt>
      <trkpt lat="43.3958" lon="5.93411">
        <ele>290.799988</ele>
        <time>2012-05-09T12:53:24Z</time>
      </trkpt>
      <trkpt lat="43.39572" lon="5.93409">
        <ele>291</ele>
        <time>2012-05-09T12:53:31Z</time>
      </trkpt>
      <trkpt lat="43.39571" lon="5.93409">
        <ele>290.799988</ele>
        <time>2012-05-09T12:53:32Z</time>
      </trkpt>
      <trkpt lat="43.39557" lon="5.93407">
        <ele>290.399994</ele>
        <time>2012-05-09T12:53:44Z</time>
      </trkpt>
      <trkpt lat="43.39549" lon="5.93406">
        <ele>289.700012</ele>
        <time>2012-05-09T12:53:50Z</time>
      </trkpt>
      <trkpt lat="43.3954" lon="5.93407">
        <ele>289.299988</ele>
        <time>2012-05-09T12:53:56Z</time>
      </trkpt>
      <trkpt lat="43.39532" lon="5.9341">
        <ele>289.399994</ele>
        <time>2012-05-09T12:54:05Z</time>
      </trkpt>
      <trkpt lat="43.39525" lon="5.93417">
        <ele>289</ele>
        <time>2012-05-09T12:54:11Z</time>
      </trkpt>
      <trkpt lat="43.39519" lon="5.93425">
        <ele>288.600006</ele>
        <time>2012-05-09T12:54:18Z</time>
      </trkpt>
      <trkpt lat="43.39513" lon="5.93433">
        <ele>288.5</ele>
        <time>2012-05-09T12:54:27Z</time>
      </trkpt>
      <trkpt lat="43.39508" lon="5.93443">
        <ele>287.399994</ele>
        <time>2012-05-09T12:54:36Z</time>
      </trkpt>
      <trkpt lat="43.39507" lon="5.93444">
        <ele>287.299988</ele>
        <time>2012-05-09T12:54:37Z</time>
      </trkpt>
      <trkpt lat="43.39493" lon="5.93454">
        <ele>286.899994</ele>
        <time>2012-05-09T12:54:51Z</time>
      </trkpt>
      <trkpt lat="43.39485" lon="5.9346">
        <ele>286.799988</ele>
        <time>2012-05-09T12:54:58Z</time>
      </trkpt>
      <trkpt lat="43.39477" lon="5.93464">
        <ele>286.399994</ele>
        <time>2012-05-09T12:55:04Z</time>
      </trkpt>
      <trkpt lat="43.39469" lon="5.93466">
        <ele>286.899994</ele>
        <time>2012-05-09T12:55:11Z</time>
      </trkpt>
      <trkpt lat="43.3946" lon="5.93467">
        <ele>286.799988</ele>
        <time>2012-05-09T12:55:18Z</time>
      </trkpt>
      <trkpt lat="43.39453" lon="5.93465">
        <ele>286.600006</ele>
        <time>2012-05-09T12:55:25Z</time>
      </trkpt>
      <trkpt lat="43.39444" lon="5.93464">
        <ele>287.100006</ele>
        <time>2012-05-09T12:55:31Z</time>
      </trkpt>
      <trkpt lat="43.39436" lon="5.93466">
        <ele>287.5</ele>
        <time>2012-05-09T12:55:38Z</time>
      </trkpt>
      <trkpt lat="43.39435" lon="5.93465">
        <ele>287.5</ele>
        <time>2012-05-09T12:55:39Z</time>
      </trkpt>
      <trkpt lat="43.3942" lon="5.93468">
        <ele>287</ele>
        <time>2012-05-09T12:55:51Z</time>
      </trkpt>
      <trkpt lat="43.39412" lon="5.93469">
        <ele>287.5</ele>
        <time>2012-05-09T12:55:58Z</time>
      </trkpt>
      <trkpt lat="43.39404" lon="5.9347">
        <ele>287.600006</ele>
        <time>2012-05-09T12:56:04Z</time>
      </trkpt>
      <trkpt lat="43.39395" lon="5.93472">
        <ele>287.799988</ele>
        <time>2012-05-09T12:56:11Z</time>
      </trkpt>
      <trkpt lat="43.39387" lon="5.93476">
        <ele>287.700012</ele>
        <time>2012-05-09T12:56:18Z</time>
      </trkpt>
      <trkpt lat="43.3938" lon="5.93477">
        <ele>287.600006</ele>
        <time>2012-05-09T12:56:23Z</time>
      </trkpt>
      <trkpt lat="43.39371" lon="5.93476">
        <ele>287.299988</ele>
        <time>2012-05-09T12:56:30Z</time>
      </trkpt>
      <trkpt lat="43.39363" lon="5.93475">
        <ele>287.299988</ele>
        <time>2012-05-09T12:56:36Z</time>
      </trkpt>
      <trkpt lat="43.39355" lon="5.93475">
        <ele>287.299988</ele>
        <time>2012-05-09T12:56:42Z</time>
      </trkpt>
      <trkpt lat="43.39354" lon="5.93474">
        <ele>287.399994</ele>
        <time>2012-05-09T12:56:43Z</time>
      </trkpt>
      <trkpt lat="43.39339" lon="5.93472">
        <ele>287.600006</ele>
        <time>2012-05-09T12:56:55Z</time>
      </trkpt>
      <trkpt lat="43.39331" lon="5.93471">
        <ele>287.5</ele>
        <time>2012-05-09T12:57:01Z</time>
      </trkpt>
      <trkpt lat="43.39323" lon="5.93466">
        <ele>288.299988</ele>
        <time>2012-05-09T12:57:16Z</time>
      </trkpt>
      <trkpt lat="43.39315" lon="5.93463">
        <ele>288</ele>
        <time>2012-05-09T12:57:23Z</time>
      </trkpt>
      <trkpt lat="43.39307" lon="5.93464">
        <ele>287.600006</ele>
        <time>2012-05-09T12:57:29Z</time>
      </trkpt>
      <trkpt lat="43.39299" lon="5.93466">
        <ele>288</ele>
        <time>2012-05-09T12:57:35Z</time>
      </trkpt>
      <trkpt lat="43.3929" lon="5.93465">
        <ele>287.799988</ele>
        <time>2012-05-09T12:57:42Z</time>
      </trkpt>
      <trkpt lat="43.39283" lon="5.93466">
        <ele>288</ele>
        <time>2012-05-09T12:57:47Z</time>
      </trkpt>
      <trkpt lat="43.39281" lon="5.93466">
        <ele>288.100006</ele>
        <time>2012-05-09T12:57:48Z</time>
      </trkpt>
      <trkpt lat="43.39267" lon="5.93462">
        <ele>287.600006</ele>
        <time>2012-05-09T12:57:59Z</time>
      </trkpt>
      <trkpt lat="43.3926" lon="5.93458">
        <ele>288.299988</ele>
        <time>2012-05-09T12:58:05Z</time>
      </trkpt>
      <trkpt lat="43.39252" lon="5.93454">
        <ele>288.600006</ele>
        <time>2012-05-09T12:58:11Z</time>
      </trkpt>
      <trkpt lat="43.39244" lon="5.93449">
        <ele>288.700012</ele>
        <time>2012-05-09T12:58:18Z</time>
      </trkpt>
      <trkpt lat="43.39236" lon="5.93447">
        <ele>288.700012</ele>
        <time>2012-05-09T12:58:24Z</time>
      </trkpt>
      <trkpt lat="43.39229" lon="5.93443">
        <ele>288.5</ele>
        <time>2012-05-09T12:58:31Z</time>
      </trkpt>
      <trkpt lat="43.3922" lon="5.93445">
        <ele>289.200012</ele>
        <time>2012-05-09T12:58:39Z</time>
      </trkpt>
      <trkpt lat="43.39212" lon="5.93443">
        <ele>289.100006</ele>
        <time>2012-05-09T12:58:47Z</time>
      </trkpt>
      <trkpt lat="43.39203" lon="5.93444">
        <ele>288.799988</ele>
        <time>2012-05-09T12:58:54Z</time>
      </trkpt>
      <trkpt lat="43.39202" lon="5.93444">
        <ele>288.799988</ele>
        <time>2012-05-09T12:58:55Z</time>
      </trkpt>
      <trkpt lat="43.39187" lon="5.93447">
        <ele>288.799988</ele>
        <time>2012-05-09T12:59:08Z</time>
      </trkpt>
      <trkpt lat="43.39178" lon="5.93449">
        <ele>288.700012</ele>
        <time>2012-05-09T12:59:15Z</time>
      </trkpt>
      <trkpt lat="43.39171" lon="5.93448">
        <ele>288.200012</ele>
        <time>2012-05-09T12:59:21Z</time>
      </trkpt>
      <trkpt lat="43.39162" lon="5.9345">
        <ele>288.600006</ele>
        <time>2012-05-09T12:59:27Z</time>
      </trkpt>
      <trkpt lat="43.39154" lon="5.93451">
        <ele>288.600006</ele>
        <time>2012-05-09T12:59:33Z</time>
      </trkpt>
      <trkpt lat="43.39146" lon="5.93451">
        <ele>288.5</ele>
        <time>2012-05-09T12:59:39Z</time>
      </trkpt>
      <trkpt lat="43.39137" lon="5.9345">
        <ele>288.5</ele>
        <time>2012-05-09T12:59:45Z</time>
      </trkpt>
      <trkpt lat="43.39129" lon="5.93451">
        <ele>288.700012</ele>
        <time>2012-05-09T12:59:51Z</time>
      </trkpt>
      <trkpt lat="43.39121" lon="5.93448">
        <ele>288.899994</ele>
        <time>2012-05-09T12:59:57Z</time>
      </trkpt>
      <trkpt lat="43.39119" lon="5.93448">
        <ele>288.899994</ele>
        <time>2012-05-09T12:59:58Z</time>
      </trkpt>
      <trkpt lat="43.39105" lon="5.93441">
        <ele>289.799988</ele>
        <time>2012-05-09T13:00:11Z</time>
      </trkpt>
      <trkpt lat="43.39098" lon="5.93435">
        <ele>290.100006</ele>
        <time>2012-05-09T13:00:20Z</time>
      </trkpt>
      <trkpt lat="43.39092" lon="5.93427">
        <ele>290.600006</ele>
        <time>2012-05-09T13:00:28Z</time>
      </trkpt>
      <trkpt lat="43.39088" lon="5.93417">
        <ele>290.899994</ele>
        <time>2012-05-09T13:00:35Z</time>
      </trkpt>
      <trkpt lat="43.39085" lon="5.93407">
        <ele>291.299988</ele>
        <time>2012-05-09T13:00:42Z</time>
      </trkpt>
      <trkpt lat="43.39083" lon="5.93395">
        <ele>291.600006</ele>
        <time>2012-05-09T13:00:49Z</time>
      </trkpt>
      <trkpt lat="43.39084" lon="5.93384">
        <ele>292.899994</ele>
        <time>2012-05-09T13:00:57Z</time>
      </trkpt>
      <trkpt lat="43.39082" lon="5.93372">
        <ele>293</ele>
        <time>2012-05-09T13:01:04Z</time>
      </trkpt>
      <trkpt lat="43.39082" lon="5.9337">
        <ele>293</ele>
        <time>2012-05-09T13:01:05Z</time>
      </trkpt>
      <trkpt lat="43.39082" lon="5.93348">
        <ele>291.299988</ele>
        <time>2012-05-09T13:01:20Z</time>
      </trkpt>
      <trkpt lat="43.39083" lon="5.93337">
        <ele>290.700012</ele>
        <time>2012-05-09T13:01:26Z</time>
      </trkpt>
      <trkpt lat="43.39084" lon="5.93327">
        <ele>290.299988</ele>
        <time>2012-05-09T13:01:32Z</time>
      </trkpt>
      <trkpt lat="43.39085" lon="5.93315">
        <ele>289.200012</ele>
        <time>2012-05-09T13:01:39Z</time>
      </trkpt>
      <trkpt lat="43.39085" lon="5.93303">
        <ele>288.799988</ele>
        <time>2012-05-09T13:01:47Z</time>
      </trkpt>
      <trkpt lat="43.39083" lon="5.93292">
        <ele>288.899994</ele>
        <time>2012-05-09T13:01:53Z</time>
      </trkpt>
      <trkpt lat="43.39079" lon="5.93282">
        <ele>288.899994</ele>
        <time>2012-05-09T13:02:00Z</time>
      </trkpt>
      <trkpt lat="43.39077" lon="5.93272">
        <ele>288.5</ele>
        <time>2012-05-09T13:02:06Z</time>
      </trkpt>
      <trkpt lat="43.39076" lon="5.9327">
        <ele>288.600006</ele>
        <time>2012-05-09T13:02:07Z</time>
      </trkpt>
      <trkpt lat="43.39068" lon="5.93252">
        <ele>289</ele>
        <time>2012-05-09T13:02:20Z</time>
      </trkpt>
      <trkpt lat="43.39063" lon="5.93243">
        <ele>288.100006</ele>
        <time>2012-05-09T13:02:27Z</time>
      </trkpt>
      <trkpt lat="43.39056" lon="5.93236">
        <ele>288.200012</ele>
        <time>2012-05-09T13:02:34Z</time>
      </trkpt>
      <trkpt lat="43.3905" lon="5.93228">
        <ele>288.399994</ele>
        <time>2012-05-09T13:02:41Z</time>
      </trkpt>
      <trkpt lat="43.39044" lon="5.9322">
        <ele>288.700012</ele>
        <time>2012-05-09T13:02:48Z</time>
      </trkpt>
      <trkpt lat="43.39038" lon="5.93213">
        <ele>289.100006</ele>
        <time>2012-05-09T13:02:55Z</time>
      </trkpt>
      <trkpt lat="43.39034" lon="5.93202">
        <ele>288.600006</ele>
        <time>2012-05-09T13:03:03Z</time>
      </trkpt>
      <trkpt lat="43.39028" lon="5.93194">
        <ele>289.200012</ele>
        <time>2012-05-09T13:03:14Z</time>
      </trkpt>
      <trkpt lat="43.39026" lon="5.93193">
        <ele>289.100006</ele>
        <time>2012-05-09T13:03:15Z</time>
      </trkpt>
      <trkpt lat="43.39013" lon="5.93182">
        <ele>288.5</ele>
        <time>2012-05-09T13:03:28Z</time>
      </trkpt>
      <trkpt lat="43.39006" lon="5.93175">
        <ele>288.600006</ele>
        <time>2012-05-09T13:03:35Z</time>
      </trkpt>
      <trkpt lat="43.38998" lon="5.93169">
        <ele>288.299988</ele>
        <time>2012-05-09T13:03:42Z</time>
      </trkpt>
      <trkpt lat="43.38991" lon="5.93164">
        <ele>288.399994</ele>
        <time>2012-05-09T13:03:49Z</time>
      </trkpt>
      <trkpt lat="43.38983" lon="5.93158">
        <ele>288</ele>
        <time>2012-05-09T13:03:57Z</time>
      </trkpt>
      <trkpt lat="43.38977" lon="5.93151">
        <ele>288.600006</ele>
        <time>2012-05-09T13:04:04Z</time>
      </trkpt>
      <trkpt lat="43.38971" lon="5.93144">
        <ele>288.700012</ele>
        <time>2012-05-09T13:04:11Z</time>
      </trkpt>
      <trkpt lat="43.38963" lon="5.93139">
        <ele>288.399994</ele>
        <time>2012-05-09T13:04:18Z</time>
      </trkpt>
      <trkpt lat="43.38962" lon="5.93138">
        <ele>288.200012</ele>
        <time>2012-05-09T13:04:19Z</time>
      </trkpt>
      <trkpt lat="43.38947" lon="5.93145">
        <ele>288.399994</ele>
        <time>2012-05-09T13:04:48Z</time>
      </trkpt>
      <trkpt lat="43.38942" lon="5.93155">
        <ele>288</ele>
        <time>2012-05-09T13:05:02Z</time>
      </trkpt>
      <trkpt lat="43.38935" lon="5.9316">
        <ele>287.700012</ele>
        <time>2012-05-09T13:05:13Z</time>
      </trkpt>
      <trkpt lat="43.38926" lon="5.93161">
        <ele>288.100006</ele>
        <time>2012-05-09T13:05:22Z</time>
      </trkpt>
      <trkpt lat="43.38925" lon="5.93161">
        <ele>288.100006</ele>
        <time>2012-05-09T13:05:23Z</time>
      </trkpt>
      <trkpt lat="43.38921" lon="5.93151">
        <ele>287.600006</ele>
        <time>2012-05-09T13:06:37Z</time>
      </trkpt>
      <trkpt lat="43.38927" lon="5.93161">
        <ele>287.200012</ele>
        <time>2012-05-09T13:08:09Z</time>
      </trkpt>
      <trkpt lat="43.38937" lon="5.93144">
        <ele>287.700012</ele>
        <time>2012-05-09T13:08:28Z</time>
      </trkpt>
      <trkpt lat="43.38944" lon="5.93135">
        <ele>287.5</ele>
        <time>2012-05-09T13:08:41Z</time>
      </trkpt>
      <trkpt lat="43.38945" lon="5.93124">
        <ele>288.600006</ele>
        <time>2012-05-09T13:09:47Z</time>
      </trkpt>
      <trkpt lat="43.38945" lon="5.93123">
        <ele>288.700012</ele>
        <time>2012-05-09T13:09:48Z</time>
      </trkpt>
      <trkpt lat="43.38935" lon="5.93106">
        <ele>289.5</ele>
        <time>2012-05-09T13:10:07Z</time>
      </trkpt>
      <trkpt lat="43.38927" lon="5.93101">
        <ele>291</ele>
        <time>2012-05-09T13:10:18Z</time>
      </trkpt>
      <trkpt lat="43.38919" lon="5.93097">
        <ele>291.700012</ele>
        <time>2012-05-09T13:10:27Z</time>
      </trkpt>
      <trkpt lat="43.38911" lon="5.93093">
        <ele>292.100006</ele>
        <time>2012-05-09T13:10:34Z</time>
      </trkpt>
      <trkpt lat="43.38904" lon="5.93089">
        <ele>292.299988</ele>
        <time>2012-05-09T13:10:40Z</time>
      </trkpt>
      <trkpt lat="43.38898" lon="5.93081">
        <ele>292.200012</ele>
        <time>2012-05-09T13:10:46Z</time>
      </trkpt>
      <trkpt lat="43.38891" lon="5.93074">
        <ele>292.100006</ele>
        <time>2012-05-09T13:10:52Z</time>
      </trkpt>
      <trkpt lat="43.3889" lon="5.93073">
        <ele>292.100006</ele>
        <time>2012-05-09T13:10:53Z</time>
      </trkpt>
      <trkpt lat="43.38883" lon="5.93054">
        <ele>292.200012</ele>
        <time>2012-05-09T13:11:06Z</time>
      </trkpt>
      <trkpt lat="43.38877" lon="5.93048">
        <ele>292.100006</ele>
        <time>2012-05-09T13:11:13Z</time>
      </trkpt>
      <trkpt lat="43.38869" lon="5.93041">
        <ele>292.100006</ele>
        <time>2012-05-09T13:11:21Z</time>
      </trkpt>
      <trkpt lat="43.38862" lon="5.93035">
        <ele>292</ele>
        <time>2012-05-09T13:11:30Z</time>
      </trkpt>
      <trkpt lat="43.38856" lon="5.93028">
        <ele>291.600006</ele>
        <time>2012-05-09T13:11:38Z</time>
      </trkpt>
      <trkpt lat="43.38848" lon="5.93026">
        <ele>291.799988</ele>
        <time>2012-05-09T13:11:46Z</time>
      </trkpt>
      <trkpt lat="43.3884" lon="5.93023">
        <ele>291.700012</ele>
        <time>2012-05-09T13:11:55Z</time>
      </trkpt>
      <trkpt lat="43.38839" lon="5.93022">
        <ele>291.799988</ele>
        <time>2012-05-09T13:11:56Z</time>
      </trkpt>
      <trkpt lat="43.38827" lon="5.93008">
        <ele>291.799988</ele>
        <time>2012-05-09T13:12:12Z</time>
      </trkpt>
      <trkpt lat="43.38819" lon="5.93002">
        <ele>291.399994</ele>
        <time>2012-05-09T13:12:20Z</time>
      </trkpt>
      <trkpt lat="43.38812" lon="5.92997">
        <ele>291.399994</ele>
        <time>2012-05-09T13:12:28Z</time>
      </trkpt>
      <trkpt lat="43.38803" lon="5.92994">
        <ele>291.600006</ele>
        <time>2012-05-09T13:12:36Z</time>
      </trkpt>
      <trkpt lat="43.38795" lon="5.92991">
        <ele>292</ele>
        <time>2012-05-09T13:12:44Z</time>
      </trkpt>
      <trkpt lat="43.38786" lon="5.9299">
        <ele>291.899994</ele>
        <time>2012-05-09T13:12:52Z</time>
      </trkpt>
      <trkpt lat="43.38777" lon="5.92988">
        <ele>291.799988</ele>
        <time>2012-05-09T13:13:01Z</time>
      </trkpt>
      <trkpt lat="43.38777" lon="5.92987">
        <ele>291.799988</ele>
        <time>2012-05-09T13:13:02Z</time>
      </trkpt>
      <trkpt lat="43.38763" lon="5.93">
        <ele>288.600006</ele>
        <time>2012-05-09T13:14:11Z</time>
      </trkpt>
      <trkpt lat="43.38763" lon="5.93">
        <ele>288.799988</ele>
        <time>2012-05-09T13:14:12Z</time>
      </trkpt>
      <trkpt lat="43.3875" lon="5.93014">
        <ele>288.600006</ele>
        <time>2012-05-09T13:14:44Z</time>
      </trkpt>
      <trkpt lat="43.38742" lon="5.93017">
        <ele>288.600006</ele>
        <time>2012-05-09T13:14:50Z</time>
      </trkpt>
      <trkpt lat="43.38734" lon="5.93012">
        <ele>288.299988</ele>
        <time>2012-05-09T13:14:59Z</time>
      </trkpt>
      <trkpt lat="43.38725" lon="5.93015">
        <ele>289.299988</ele>
        <time>2012-05-09T13:15:26Z</time>
      </trkpt>
      <trkpt lat="43.38725" lon="5.93016">
        <ele>289.200012</ele>
        <time>2012-05-09T13:15:27Z</time>
      </trkpt>
      <trkpt lat="43.38708" lon="5.93026">
        <ele>287</ele>
        <time>2012-05-09T13:16:08Z</time>
      </trkpt>
      <trkpt lat="43.387" lon="5.93029">
        <ele>288</ele>
        <time>2012-05-09T13:16:16Z</time>
      </trkpt>
      <trkpt lat="43.38693" lon="5.93031">
        <ele>287.600006</ele>
        <time>2012-05-09T13:16:20Z</time>
      </trkpt>
      <trkpt lat="43.38685" lon="5.93031">
        <ele>287.700012</ele>
        <time>2012-05-09T13:16:26Z</time>
      </trkpt>
      <trkpt lat="43.38677" lon="5.93029">
        <ele>288</ele>
        <time>2012-05-09T13:16:35Z</time>
      </trkpt>
      <trkpt lat="43.38676" lon="5.93029">
        <ele>288</ele>
        <time>2012-05-09T13:16:36Z</time>
      </trkpt>
      <trkpt lat="43.38663" lon="5.93015">
        <ele>287.5</ele>
        <time>2012-05-09T13:16:50Z</time>
      </trkpt>
      <trkpt lat="43.38656" lon="5.93008">
        <ele>287.700012</ele>
        <time>2012-05-09T13:16:57Z</time>
      </trkpt>
      <trkpt lat="43.38649" lon="5.93005">
        <ele>288.5</ele>
        <time>2012-05-09T13:17:04Z</time>
      </trkpt>
      <trkpt lat="43.38642" lon="5.92997">
        <ele>289</ele>
        <time>2012-05-09T13:17:11Z</time>
      </trkpt>
      <trkpt lat="43.38641" lon="5.92985">
        <ele>289.299988</ele>
        <time>2012-05-09T13:17:19Z</time>
      </trkpt>
      <trkpt lat="43.38644" lon="5.92974">
        <ele>289.5</ele>
        <time>2012-05-09T13:17:25Z</time>
      </trkpt>
      <trkpt lat="43.3864" lon="5.92965">
        <ele>289.299988</ele>
        <time>2012-05-09T13:17:29Z</time>
      </trkpt>
      <trkpt lat="43.38641" lon="5.92954">
        <ele>289.399994</ele>
        <time>2012-05-09T13:17:35Z</time>
      </trkpt>
      <trkpt lat="43.38643" lon="5.92943">
        <ele>289.5</ele>
        <time>2012-05-09T13:17:41Z</time>
      </trkpt>
      <trkpt lat="43.38645" lon="5.92941">
        <ele>289.5</ele>
        <time>2012-05-09T13:17:42Z</time>
      </trkpt>
      <trkpt lat="43.38652" lon="5.92924">
        <ele>290</ele>
        <time>2012-05-09T13:17:54Z</time>
      </trkpt>
      <trkpt lat="43.38655" lon="5.92915">
        <ele>290</ele>
        <time>2012-05-09T13:17:59Z</time>
      </trkpt>
      <trkpt lat="43.38662" lon="5.92909">
        <ele>289.899994</ele>
        <time>2012-05-09T13:18:09Z</time>
      </trkpt>
      <trkpt lat="43.38671" lon="5.92906">
        <ele>289.899994</ele>
        <time>2012-05-09T13:18:17Z</time>
      </trkpt>
      <trkpt lat="43.38679" lon="5.92911">
        <ele>290.5</ele>
        <time>2012-05-09T13:19:05Z</time>
      </trkpt>
      <trkpt lat="43.38681" lon="5.92911">
        <ele>290.399994</ele>
        <time>2012-05-09T13:19:06Z</time>
      </trkpt>
      <trkpt lat="43.38694" lon="5.92903">
        <ele>290.5</ele>
        <time>2012-05-09T13:20:35Z</time>
      </trkpt>
      <trkpt lat="43.38695" lon="5.92902">
        <ele>290.5</ele>
        <time>2012-05-09T13:20:36Z</time>
      </trkpt>
      <trkpt lat="43.38708" lon="5.92895">
        <ele>290.399994</ele>
        <time>2012-05-09T13:20:50Z</time>
      </trkpt>
      <trkpt lat="43.38713" lon="5.92885">
        <ele>290.600006</ele>
        <time>2012-05-09T13:20:58Z</time>
      </trkpt>
      <trkpt lat="43.38721" lon="5.92883">
        <ele>290.600006</ele>
        <time>2012-05-09T13:21:04Z</time>
      </trkpt>
      <trkpt lat="43.38728" lon="5.92879">
        <ele>290.299988</ele>
        <time>2012-05-09T13:21:10Z</time>
      </trkpt>
      <trkpt lat="43.38736" lon="5.92874">
        <ele>290.600006</ele>
        <time>2012-05-09T13:21:17Z</time>
      </trkpt>
      <trkpt lat="43.38741" lon="5.92864">
        <ele>289.899994</ele>
        <time>2012-05-09T13:21:45Z</time>
      </trkpt>
      <trkpt lat="43.38741" lon="5.92863">
        <ele>290</ele>
        <time>2012-05-09T13:21:46Z</time>
      </trkpt>
      <trkpt lat="43.38739" lon="5.92844">
        <ele>290.399994</ele>
        <time>2012-05-09T13:22:26Z</time>
      </trkpt>
      <trkpt lat="43.38746" lon="5.92839">
        <ele>291</ele>
        <time>2012-05-09T13:22:37Z</time>
      </trkpt>
      <trkpt lat="43.38754" lon="5.9284">
        <ele>291.399994</ele>
        <time>2012-05-09T13:22:41Z</time>
      </trkpt>
      <trkpt lat="43.38756" lon="5.92828">
        <ele>291.100006</ele>
        <time>2012-05-09T13:22:53Z</time>
      </trkpt>
      <trkpt lat="43.38755" lon="5.92827">
        <ele>291.100006</ele>
        <time>2012-05-09T13:22:54Z</time>
      </trkpt>
      <trkpt lat="43.38743" lon="5.92813">
        <ele>291</ele>
        <time>2012-05-09T13:23:04Z</time>
      </trkpt>
      <trkpt lat="43.38737" lon="5.92805">
        <ele>290.700012</ele>
        <time>2012-05-09T13:23:11Z</time>
      </trkpt>
      <trkpt lat="43.38729" lon="5.92804">
        <ele>290.799988</ele>
        <time>2012-05-09T13:23:17Z</time>
      </trkpt>
      <trkpt lat="43.38721" lon="5.92801">
        <ele>291</ele>
        <time>2012-05-09T13:23:25Z</time>
      </trkpt>
      <trkpt lat="43.38712" lon="5.928">
        <ele>291.100006</ele>
        <time>2012-05-09T13:23:34Z</time>
      </trkpt>
      <trkpt lat="43.38705" lon="5.92797">
        <ele>290.899994</ele>
        <time>2012-05-09T13:23:41Z</time>
      </trkpt>
      <trkpt lat="43.38698" lon="5.92791">
        <ele>291.100006</ele>
        <time>2012-05-09T13:23:52Z</time>
      </trkpt>
      <trkpt lat="43.3869" lon="5.92786">
        <ele>290.799988</ele>
        <time>2012-05-09T13:23:59Z</time>
      </trkpt>
      <trkpt lat="43.38688" lon="5.92786">
        <ele>290.700012</ele>
        <time>2012-05-09T13:24:00Z</time>
      </trkpt>
      <trkpt lat="43.38673" lon="5.92783">
        <ele>291.5</ele>
        <time>2012-05-09T13:24:17Z</time>
      </trkpt>
      <trkpt lat="43.38665" lon="5.92782">
        <ele>291.5</ele>
        <time>2012-05-09T13:24:26Z</time>
      </trkpt>
      <trkpt lat="43.38657" lon="5.92779">
        <ele>291.700012</ele>
        <time>2012-05-09T13:24:35Z</time>
      </trkpt>
      <trkpt lat="43.38649" lon="5.92778">
        <ele>291.700012</ele>
        <time>2012-05-09T13:24:41Z</time>
      </trkpt>
      <trkpt lat="43.38643" lon="5.9277">
        <ele>291.700012</ele>
        <time>2012-05-09T13:24:51Z</time>
      </trkpt>
      <trkpt lat="43.38637" lon="5.92763">
        <ele>292.399994</ele>
        <time>2012-05-09T13:24:59Z</time>
      </trkpt>
      <trkpt lat="43.3863" lon="5.92757">
        <ele>292.5</ele>
        <time>2012-05-09T13:25:04Z</time>
      </trkpt>
      <trkpt lat="43.3863" lon="5.92755">
        <ele>292.5</ele>
        <time>2012-05-09T13:25:05Z</time>
      </trkpt>
      <trkpt lat="43.38622" lon="5.92738">
        <ele>292.100006</ele>
        <time>2012-05-09T13:25:15Z</time>
      </trkpt>
      <trkpt lat="43.38621" lon="5.92727">
        <ele>292.5</ele>
        <time>2012-05-09T13:25:20Z</time>
      </trkpt>
      <trkpt lat="43.38621" lon="5.92715">
        <ele>292.600006</ele>
        <time>2012-05-09T13:25:26Z</time>
      </trkpt>
      <trkpt lat="43.38622" lon="5.92704">
        <ele>292.5</ele>
        <time>2012-05-09T13:25:33Z</time>
      </trkpt>
      <trkpt lat="43.38623" lon="5.92692">
        <ele>292.799988</ele>
        <time>2012-05-09T13:25:41Z</time>
      </trkpt>
      <trkpt lat="43.38626" lon="5.92681">
        <ele>292.600006</ele>
        <time>2012-05-09T13:25:55Z</time>
      </trkpt>
      <trkpt lat="43.38621" lon="5.92671">
        <ele>291.899994</ele>
        <time>2012-05-09T13:26:03Z</time>
      </trkpt>
      <trkpt lat="43.38616" lon="5.92661">
        <ele>292.399994</ele>
        <time>2012-05-09T13:26:13Z</time>
      </trkpt>
      <trkpt lat="43.38616" lon="5.92659">
        <ele>292.299988</ele>
        <time>2012-05-09T13:26:14Z</time>
      </trkpt>
      <trkpt lat="43.38611" lon="5.92639">
        <ele>292.399994</ele>
        <time>2012-05-09T13:26:30Z</time>
      </trkpt>
      <trkpt lat="43.38606" lon="5.9263">
        <ele>292</ele>
        <time>2012-05-09T13:26:42Z</time>
      </trkpt>
      <trkpt lat="43.38606" lon="5.92618">
        <ele>292</ele>
        <time>2012-05-09T13:26:47Z</time>
      </trkpt>
      <trkpt lat="43.38603" lon="5.92606">
        <ele>292.100006</ele>
        <time>2012-05-09T13:26:55Z</time>
      </trkpt>
      <trkpt lat="43.38596" lon="5.92601">
        <ele>292.5</ele>
        <time>2012-05-09T13:27:02Z</time>
      </trkpt>
      <trkpt lat="43.38594" lon="5.92589">
        <ele>292.399994</ele>
        <time>2012-05-09T13:27:13Z</time>
      </trkpt>
      <trkpt lat="43.38592" lon="5.92577">
        <ele>292.700012</ele>
        <time>2012-05-09T13:27:36Z</time>
      </trkpt>
      <trkpt lat="43.38591" lon="5.92576">
        <ele>292.700012</ele>
        <time>2012-05-09T13:27:37Z</time>
      </trkpt>
      <trkpt lat="43.38579" lon="5.92564">
        <ele>291.899994</ele>
        <time>2012-05-09T13:28:00Z</time>
      </trkpt>
      <trkpt lat="43.3857" lon="5.92563">
        <ele>292.399994</ele>
        <time>2012-05-09T13:28:12Z</time>
      </trkpt>
      <trkpt lat="43.38563" lon="5.92557">
        <ele>292.5</ele>
        <time>2012-05-09T13:28:22Z</time>
      </trkpt>
      <trkpt lat="43.38554" lon="5.92554">
        <ele>292.799988</ele>
        <time>2012-05-09T13:28:30Z</time>
      </trkpt>
      <trkpt lat="43.38546" lon="5.92552">
        <ele>293.100006</ele>
        <time>2012-05-09T13:28:40Z</time>
      </trkpt>
      <trkpt lat="43.38545" lon="5.92552">
        <ele>293</ele>
        <time>2012-05-09T13:28:41Z</time>
      </trkpt>
      <trkpt lat="43.38532" lon="5.92559">
        <ele>293.700012</ele>
        <time>2012-05-09T13:29:03Z</time>
      </trkpt>
      <trkpt lat="43.38523" lon="5.92561">
        <ele>293.899994</ele>
        <time>2012-05-09T13:29:09Z</time>
      </trkpt>
      <trkpt lat="43.38516" lon="5.9256">
        <ele>293.799988</ele>
        <time>2012-05-09T13:29:22Z</time>
      </trkpt>
      <trkpt lat="43.38507" lon="5.92559">
        <ele>294.299988</ele>
        <time>2012-05-09T13:29:28Z</time>
      </trkpt>
      <trkpt lat="43.38499" lon="5.92558">
        <ele>294.200012</ele>
        <time>2012-05-09T13:29:41Z</time>
      </trkpt>
      <trkpt lat="43.38498" lon="5.92558">
        <ele>294.200012</ele>
        <time>2012-05-09T13:29:42Z</time>
      </trkpt>
      <trkpt lat="43.38482" lon="5.92564">
        <ele>294.600006</ele>
        <time>2012-05-09T13:30:49Z</time>
      </trkpt>
      <trkpt lat="43.38482" lon="5.92564">
        <ele>294.399994</ele>
        <time>2012-05-09T13:30:50Z</time>
      </trkpt>
      <trkpt lat="43.38474" lon="5.92558">
        <ele>294.899994</ele>
        <time>2012-05-09T13:32:43Z</time>
      </trkpt>
      <trkpt lat="43.38464" lon="5.92541">
        <ele>295</ele>
        <time>2012-05-09T13:32:57Z</time>
      </trkpt>
      <trkpt lat="43.38463" lon="5.92531">
        <ele>295.100006</ele>
        <time>2012-05-09T13:33:02Z</time>
      </trkpt>
      <trkpt lat="43.38461" lon="5.9252">
        <ele>295.100006</ele>
        <time>2012-05-09T13:33:08Z</time>
      </trkpt>
      <trkpt lat="43.38465" lon="5.92511">
        <ele>295.299988</ele>
        <time>2012-05-09T13:33:15Z</time>
      </trkpt>
      <trkpt lat="43.38473" lon="5.92505">
        <ele>295.100006</ele>
        <time>2012-05-09T13:33:22Z</time>
      </trkpt>
      <trkpt lat="43.38474" lon="5.92494">
        <ele>295.399994</ele>
        <time>2012-05-09T13:33:29Z</time>
      </trkpt>
      <trkpt lat="43.38477" lon="5.92483">
        <ele>295.799988</ele>
        <time>2012-05-09T13:33:36Z</time>
      </trkpt>
      <trkpt lat="43.38479" lon="5.92471">
        <ele>295.700012</ele>
        <time>2012-05-09T13:33:44Z</time>
      </trkpt>
      <trkpt lat="43.3848" lon="5.9247">
        <ele>295.700012</ele>
        <time>2012-05-09T13:33:45Z</time>
      </trkpt>
      <trkpt lat="43.38483" lon="5.92451">
        <ele>296.100006</ele>
        <time>2012-05-09T13:33:57Z</time>
      </trkpt>
      <trkpt lat="43.38487" lon="5.92443">
        <ele>296.200012</ele>
        <time>2012-05-09T13:34:03Z</time>
      </trkpt>
      <trkpt lat="43.38487" lon="5.92432">
        <ele>296.700012</ele>
        <time>2012-05-09T13:34:08Z</time>
      </trkpt>
      <trkpt lat="43.38486" lon="5.92421">
        <ele>296.399994</ele>
        <time>2012-05-09T13:34:16Z</time>
      </trkpt>
      <trkpt lat="43.38491" lon="5.92414">
        <ele>296.399994</ele>
        <time>2012-05-09T13:34:22Z</time>
      </trkpt>
      <trkpt lat="43.38492" lon="5.92401">
        <ele>295.799988</ele>
        <time>2012-05-09T13:34:31Z</time>
      </trkpt>
      <trkpt lat="43.38497" lon="5.92392">
        <ele>296.299988</ele>
        <time>2012-05-09T13:34:39Z</time>
      </trkpt>
      <trkpt lat="43.38493" lon="5.92384">
        <ele>296.899994</ele>
        <time>2012-05-09T13:34:47Z</time>
      </trkpt>
      <trkpt lat="43.3849" lon="5.92382">
        <ele>296.700012</ele>
        <time>2012-05-09T13:34:48Z</time>
      </trkpt>
      <trkpt lat="43.38483" lon="5.92366">
        <ele>296.700012</ele>
        <time>2012-05-09T13:35:02Z</time>
      </trkpt>
      <trkpt lat="43.38478" lon="5.92356">
        <ele>296.799988</ele>
        <time>2012-05-09T13:35:10Z</time>
      </trkpt>
      <trkpt lat="43.38471" lon="5.92348">
        <ele>296.600006</ele>
        <time>2012-05-09T13:35:16Z</time>
      </trkpt>
      <trkpt lat="43.3847" lon="5.92336">
        <ele>296.799988</ele>
        <time>2012-05-09T13:35:28Z</time>
      </trkpt>
      <trkpt lat="43.38463" lon="5.9233">
        <ele>296.5</ele>
        <time>2012-05-09T13:35:35Z</time>
      </trkpt>
      <trkpt lat="43.38457" lon="5.92323">
        <ele>296.600006</ele>
        <time>2012-05-09T13:35:40Z</time>
      </trkpt>
      <trkpt lat="43.38451" lon="5.92315">
        <ele>296.600006</ele>
        <time>2012-05-09T13:35:44Z</time>
      </trkpt>
      <trkpt lat="43.38447" lon="5.92306">
        <ele>296.200012</ele>
        <time>2012-05-09T13:35:49Z</time>
      </trkpt>
      <trkpt lat="43.38447" lon="5.92304">
        <ele>296.299988</ele>
        <time>2012-05-09T13:35:50Z</time>
      </trkpt>
      <trkpt lat="43.38436" lon="5.9229">
        <ele>297.399994</ele>
        <time>2012-05-09T13:36:05Z</time>
      </trkpt>
      <trkpt lat="43.38428" lon="5.92286">
        <ele>297.100006</ele>
        <time>2012-05-09T13:36:14Z</time>
      </trkpt>
      <trkpt lat="43.3842" lon="5.92283">
        <ele>296.5</ele>
        <time>2012-05-09T13:36:26Z</time>
      </trkpt>
      <trkpt lat="43.38417" lon="5.92272">
        <ele>296.899994</ele>
        <time>2012-05-09T13:36:34Z</time>
      </trkpt>
      <trkpt lat="43.38411" lon="5.92263">
        <ele>296.899994</ele>
        <time>2012-05-09T13:36:46Z</time>
      </trkpt>
      <trkpt lat="43.38407" lon="5.92253">
        <ele>296.799988</ele>
        <time>2012-05-09T13:37:01Z</time>
      </trkpt>
      <trkpt lat="43.38405" lon="5.92253">
        <ele>296.899994</ele>
        <time>2012-05-09T13:37:02Z</time>
      </trkpt>
      <trkpt lat="43.38393" lon="5.92242">
        <ele>297.200012</ele>
        <time>2012-05-09T13:37:13Z</time>
      </trkpt>
      <trkpt lat="43.38387" lon="5.92234">
        <ele>297.700012</ele>
        <time>2012-05-09T13:37:19Z</time>
      </trkpt>
      <trkpt lat="43.38379" lon="5.92228">
        <ele>298.299988</ele>
        <time>2012-05-09T13:37:34Z</time>
      </trkpt>
      <trkpt lat="43.38373" lon="5.92221">
        <ele>298.399994</ele>
        <time>2012-05-09T13:37:43Z</time>
      </trkpt>
      <trkpt lat="43.38366" lon="5.92217">
        <ele>298.799988</ele>
        <time>2012-05-09T13:37:48Z</time>
      </trkpt>
      <trkpt lat="43.3836" lon="5.92209">
        <ele>299.100006</ele>
        <time>2012-05-09T13:37:56Z</time>
      </trkpt>
      <trkpt lat="43.38352" lon="5.92203">
        <ele>299.799988</ele>
        <time>2012-05-09T13:38:08Z</time>
      </trkpt>
      <trkpt lat="43.38351" lon="5.92202">
        <ele>300</ele>
        <time>2012-05-09T13:38:09Z</time>
      </trkpt>
      <trkpt lat="43.38337" lon="5.92193">
        <ele>300.600006</ele>
        <time>2012-05-09T13:38:42Z</time>
      </trkpt>
      <trkpt lat="43.38331" lon="5.92186">
        <ele>301.299988</ele>
        <time>2012-05-09T13:39:00Z</time>
      </trkpt>
      <trkpt lat="43.38324" lon="5.92179">
        <ele>301.799988</ele>
        <time>2012-05-09T13:39:13Z</time>
      </trkpt>
      <trkpt lat="43.38323" lon="5.92179">
        <ele>301.899994</ele>
        <time>2012-05-09T13:39:14Z</time>
      </trkpt>
      <trkpt lat="43.38317" lon="5.92158">
        <ele>305.799988</ele>
        <time>2012-05-09T13:39:45Z</time>
      </trkpt>
      <trkpt lat="43.3831" lon="5.92162">
        <ele>305.799988</ele>
        <time>2012-05-09T13:40:04Z</time>
      </trkpt>
      <trkpt lat="43.38301" lon="5.92162">
        <ele>305.5</ele>
        <time>2012-05-09T13:40:14Z</time>
      </trkpt>
      <trkpt lat="43.383" lon="5.92162">
        <ele>305.100006</ele>
        <time>2012-05-09T13:40:15Z</time>
      </trkpt>
      <trkpt lat="43.38284" lon="5.92164">
        <ele>303</ele>
        <time>2012-05-09T13:40:30Z</time>
      </trkpt>
      <trkpt lat="43.38275" lon="5.92161">
        <ele>301.600006</ele>
        <time>2012-05-09T13:40:45Z</time>
      </trkpt>
      <trkpt lat="43.3827" lon="5.92156">
        <ele>301.5</ele>
        <time>2012-05-09T13:40:48Z</time>
      </trkpt>
      <trkpt lat="43.38261" lon="5.92154">
        <ele>301</ele>
        <time>2012-05-09T13:40:53Z</time>
      </trkpt>
      <trkpt lat="43.38253" lon="5.92157">
        <ele>300.5</ele>
        <time>2012-05-09T13:40:58Z</time>
      </trkpt>
      <trkpt lat="43.38245" lon="5.92158">
        <ele>300.100006</ele>
        <time>2012-05-09T13:41:07Z</time>
      </trkpt>
      <trkpt lat="43.38236" lon="5.92161">
        <ele>300.600006</ele>
        <time>2012-05-09T13:41:14Z</time>
      </trkpt>
      <trkpt lat="43.38236" lon="5.92162">
        <ele>300.600006</ele>
        <time>2012-05-09T13:41:15Z</time>
      </trkpt>
      <trkpt lat="43.38221" lon="5.92159">
        <ele>300.5</ele>
        <time>2012-05-09T13:41:25Z</time>
      </trkpt>
      <trkpt lat="43.38212" lon="5.92158">
        <ele>300.600006</ele>
        <time>2012-05-09T13:41:32Z</time>
      </trkpt>
      <trkpt lat="43.38205" lon="5.92154">
        <ele>300.700012</ele>
        <time>2012-05-09T13:41:40Z</time>
      </trkpt>
      <trkpt lat="43.38198" lon="5.9215">
        <ele>301.200012</ele>
        <time>2012-05-09T13:41:45Z</time>
      </trkpt>
      <trkpt lat="43.3819" lon="5.92147">
        <ele>301.299988</ele>
        <time>2012-05-09T13:41:53Z</time>
      </trkpt>
      <trkpt lat="43.38182" lon="5.92143">
        <ele>301.700012</ele>
        <time>2012-05-09T13:42:01Z</time>
      </trkpt>
      <trkpt lat="43.38174" lon="5.92141">
        <ele>301.899994</ele>
        <time>2012-05-09T13:42:06Z</time>
      </trkpt>
      <trkpt lat="43.38165" lon="5.9214">
        <ele>302.100006</ele>
        <time>2012-05-09T13:42:12Z</time>
      </trkpt>
      <trkpt lat="43.38157" lon="5.92138">
        <ele>301.600006</ele>
        <time>2012-05-09T13:42:19Z</time>
      </trkpt>
      <trkpt lat="43.38156" lon="5.92139">
        <ele>301.600006</ele>
        <time>2012-05-09T13:42:20Z</time>
      </trkpt>
      <trkpt lat="43.3814" lon="5.92143">
        <ele>301.700012</ele>
        <time>2012-05-09T13:42:35Z</time>
      </trkpt>
      <trkpt lat="43.38132" lon="5.92141">
        <ele>301.600006</ele>
        <time>2012-05-09T13:42:42Z</time>
      </trkpt>
      <trkpt lat="43.38124" lon="5.92143">
        <ele>301.200012</ele>
        <time>2012-05-09T13:42:50Z</time>
      </trkpt>
      <trkpt lat="43.38115" lon="5.92146">
        <ele>300.600006</ele>
        <time>2012-05-09T13:42:57Z</time>
      </trkpt>
      <trkpt lat="43.38108" lon="5.92149">
        <ele>300.399994</ele>
        <time>2012-05-09T13:43:06Z</time>
      </trkpt>
      <trkpt lat="43.381" lon="5.9215">
        <ele>300.200012</ele>
        <time>2012-05-09T13:43:13Z</time>
      </trkpt>
      <trkpt lat="43.38091" lon="5.92152">
        <ele>299.600006</ele>
        <time>2012-05-09T13:43:19Z</time>
      </trkpt>
      <trkpt lat="43.38083" lon="5.92155">
        <ele>299.700012</ele>
        <time>2012-05-09T13:43:27Z</time>
      </trkpt>
      <trkpt lat="43.38081" lon="5.92155">
        <ele>299.700012</ele>
        <time>2012-05-09T13:43:28Z</time>
      </trkpt>
      <trkpt lat="43.38068" lon="5.92148">
        <ele>300</ele>
        <time>2012-05-09T13:43:37Z</time>
      </trkpt>
      <trkpt lat="43.38063" lon="5.9214">
        <ele>300.100006</ele>
        <time>2012-05-09T13:43:41Z</time>
      </trkpt>
      <trkpt lat="43.38059" lon="5.92135">
        <ele>300.100006</ele>
        <time>2012-05-09T13:43:43Z</time>
      </trkpt>
      <trkpt lat="43.38053" lon="5.92126">
        <ele>300</ele>
        <time>2012-05-09T13:43:46Z</time>
      </trkpt>
      <trkpt lat="43.38051" lon="5.92114">
        <ele>300.100006</ele>
        <time>2012-05-09T13:43:50Z</time>
      </trkpt>
      <trkpt lat="43.38054" lon="5.92103">
        <ele>300.5</ele>
        <time>2012-05-09T13:43:57Z</time>
      </trkpt>
      <trkpt lat="43.38048" lon="5.92096">
        <ele>300.399994</ele>
        <time>2012-05-09T13:44:01Z</time>
      </trkpt>
      <trkpt lat="43.38043" lon="5.92089">
        <ele>300.299988</ele>
        <time>2012-05-09T13:44:06Z</time>
      </trkpt>
      <trkpt lat="43.38047" lon="5.92078">
        <ele>301.200012</ele>
        <time>2012-05-09T13:44:16Z</time>
      </trkpt>
      <trkpt lat="43.38042" lon="5.92072">
        <ele>301.100006</ele>
        <time>2012-05-09T13:44:28Z</time>
      </trkpt>
      <trkpt lat="43.38039" lon="5.92071">
        <ele>301</ele>
        <time>2012-05-09T13:44:29Z</time>
      </trkpt>
      <trkpt lat="43.38028" lon="5.92059">
        <ele>301</ele>
        <time>2012-05-09T13:44:37Z</time>
      </trkpt>
      <trkpt lat="43.38023" lon="5.92051">
        <ele>301.200012</ele>
        <time>2012-05-09T13:44:41Z</time>
      </trkpt>
      <trkpt lat="43.38019" lon="5.92043">
        <ele>301.200012</ele>
        <time>2012-05-09T13:44:47Z</time>
      </trkpt>
      <trkpt lat="43.38014" lon="5.92033">
        <ele>301.399994</ele>
        <time>2012-05-09T13:44:51Z</time>
      </trkpt>
      <trkpt lat="43.38009" lon="5.92024">
        <ele>301.299988</ele>
        <time>2012-05-09T13:44:57Z</time>
      </trkpt>
      <trkpt lat="43.38004" lon="5.92014">
        <ele>301.200012</ele>
        <time>2012-05-09T13:45:08Z</time>
      </trkpt>
      <trkpt lat="43.38" lon="5.92004">
        <ele>301.299988</ele>
        <time>2012-05-09T13:45:15Z</time>
      </trkpt>
      <trkpt lat="43.37993" lon="5.91995">
        <ele>301</ele>
        <time>2012-05-09T13:45:21Z</time>
      </trkpt>
      <trkpt lat="43.37995" lon="5.91984">
        <ele>301.100006</ele>
        <time>2012-05-09T13:45:26Z</time>
      </trkpt>
      <trkpt lat="43.37993" lon="5.91972">
        <ele>301.299988</ele>
        <time>2012-05-09T13:45:35Z</time>
      </trkpt>
      <trkpt lat="43.37992" lon="5.91971">
        <ele>301.600006</ele>
        <time>2012-05-09T13:45:36Z</time>
      </trkpt>
      <trkpt lat="43.37982" lon="5.91956">
        <ele>301.700012</ele>
        <time>2012-05-09T13:45:42Z</time>
      </trkpt>
      <trkpt lat="43.37983" lon="5.91944">
        <ele>302.200012</ele>
        <time>2012-05-09T13:45:53Z</time>
      </trkpt>
      <trkpt lat="43.37982" lon="5.91934">
        <ele>302.100006</ele>
        <time>2012-05-09T13:46:01Z</time>
      </trkpt>
      <trkpt lat="43.37982" lon="5.91922">
        <ele>302.5</ele>
        <time>2012-05-09T13:46:08Z</time>
      </trkpt>
      <trkpt lat="43.37977" lon="5.91913">
        <ele>302</ele>
        <time>2012-05-09T13:46:15Z</time>
      </trkpt>
      <trkpt lat="43.37973" lon="5.91903">
        <ele>302.799988</ele>
        <time>2012-05-09T13:46:24Z</time>
      </trkpt>
      <trkpt lat="43.37973" lon="5.91892">
        <ele>303</ele>
        <time>2012-05-09T13:46:34Z</time>
      </trkpt>
      <trkpt lat="43.37968" lon="5.91883">
        <ele>303.5</ele>
        <time>2012-05-09T13:46:42Z</time>
      </trkpt>
      <trkpt lat="43.37966" lon="5.91883">
        <ele>303.600006</ele>
        <time>2012-05-09T13:46:43Z</time>
      </trkpt>
      <trkpt lat="43.37961" lon="5.91862">
        <ele>303.399994</ele>
        <time>2012-05-09T13:46:58Z</time>
      </trkpt>
      <trkpt lat="43.37957" lon="5.91852">
        <ele>303.299988</ele>
        <time>2012-05-09T13:47:02Z</time>
      </trkpt>
      <trkpt lat="43.3795" lon="5.91847">
        <ele>303.299988</ele>
        <time>2012-05-09T13:47:09Z</time>
      </trkpt>
      <trkpt lat="43.37944" lon="5.91839">
        <ele>303.299988</ele>
        <time>2012-05-09T13:47:13Z</time>
      </trkpt>
      <trkpt lat="43.37939" lon="5.9183">
        <ele>303.399994</ele>
        <time>2012-05-09T13:47:20Z</time>
      </trkpt>
      <trkpt lat="43.37938" lon="5.91819">
        <ele>303.299988</ele>
        <time>2012-05-09T13:47:26Z</time>
      </trkpt>
      <trkpt lat="43.37938" lon="5.91807">
        <ele>302.700012</ele>
        <time>2012-05-09T13:47:36Z</time>
      </trkpt>
      <trkpt lat="43.37932" lon="5.91798">
        <ele>302.5</ele>
        <time>2012-05-09T13:47:44Z</time>
      </trkpt>
      <trkpt lat="43.37932" lon="5.91797">
        <ele>302.200012</ele>
        <time>2012-05-09T13:47:45Z</time>
      </trkpt>
      <trkpt lat="43.37921" lon="5.91782">
        <ele>302.600006</ele>
        <time>2012-05-09T13:47:59Z</time>
      </trkpt>
      <trkpt lat="43.37915" lon="5.91776">
        <ele>302.299988</ele>
        <time>2012-05-09T13:48:02Z</time>
      </trkpt>
      <trkpt lat="43.3791" lon="5.91767">
        <ele>302.299988</ele>
        <time>2012-05-09T13:48:06Z</time>
      </trkpt>
      <trkpt lat="43.37907" lon="5.91756">
        <ele>302.200012</ele>
        <time>2012-05-09T13:48:21Z</time>
      </trkpt>
      <trkpt lat="43.37901" lon="5.91747">
        <ele>302.5</ele>
        <time>2012-05-09T13:48:25Z</time>
      </trkpt>
      <trkpt lat="43.37898" lon="5.91736">
        <ele>301.899994</ele>
        <time>2012-05-09T13:48:34Z</time>
      </trkpt>
      <trkpt lat="43.37894" lon="5.91726">
        <ele>302.299988</ele>
        <time>2012-05-09T13:48:43Z</time>
      </trkpt>
      <trkpt lat="43.37889" lon="5.91716">
        <ele>303.100006</ele>
        <time>2012-05-09T13:48:53Z</time>
      </trkpt>
      <trkpt lat="43.37888" lon="5.91714">
        <ele>303.100006</ele>
        <time>2012-05-09T13:48:54Z</time>
      </trkpt>
      <trkpt lat="43.37877" lon="5.91704">
        <ele>302</ele>
        <time>2012-05-09T13:49:42Z</time>
      </trkpt>
      <trkpt lat="43.37872" lon="5.91695">
        <ele>302.799988</ele>
        <time>2012-05-09T13:49:49Z</time>
      </trkpt>
      <trkpt lat="43.37871" lon="5.91685">
        <ele>302.600006</ele>
        <time>2012-05-09T13:51:02Z</time>
      </trkpt>
      <trkpt lat="43.3787" lon="5.91682">
        <ele>302.600006</ele>
        <time>2012-05-09T13:51:03Z</time>
      </trkpt>
      <trkpt lat="43.37869" lon="5.91664">
        <ele>303.299988</ele>
        <time>2012-05-09T13:51:31Z</time>
      </trkpt>
      <trkpt lat="43.37875" lon="5.91659">
        <ele>304.100006</ele>
        <time>2012-05-09T13:51:35Z</time>
      </trkpt>
      <trkpt lat="43.37876" lon="5.91646">
        <ele>305.200012</ele>
        <time>2012-05-09T13:51:47Z</time>
      </trkpt>
      <trkpt lat="43.37874" lon="5.91635">
        <ele>306.799988</ele>
        <time>2012-05-09T13:52:05Z</time>
      </trkpt>
      <trkpt lat="43.37873" lon="5.91634">
        <ele>307</ele>
        <time>2012-05-09T13:52:06Z</time>
      </trkpt>
      <trkpt lat="43.37861" lon="5.91621">
        <ele>309.100006</ele>
        <time>2012-05-09T13:52:31Z</time>
      </trkpt>
      <trkpt lat="43.37854" lon="5.91614">
        <ele>308.600006</ele>
        <time>2012-05-09T13:52:44Z</time>
      </trkpt>
      <trkpt lat="43.37849" lon="5.91607">
        <ele>308.299988</ele>
        <time>2012-05-09T13:52:49Z</time>
      </trkpt>
      <trkpt lat="43.37843" lon="5.91601">
        <ele>308.700012</ele>
        <time>2012-05-09T13:52:52Z</time>
      </trkpt>
      <trkpt lat="43.37839" lon="5.91591">
        <ele>309.600006</ele>
        <time>2012-05-09T13:53:00Z</time>
      </trkpt>
      <trkpt lat="43.37837" lon="5.91581">
        <ele>309.899994</ele>
        <time>2012-05-09T13:53:06Z</time>
      </trkpt>
      <trkpt lat="43.37836" lon="5.91579">
        <ele>310.100006</ele>
        <time>2012-05-09T13:53:07Z</time>
      </trkpt>
      <trkpt lat="43.3783" lon="5.91561">
        <ele>313.899994</ele>
        <time>2012-05-09T13:53:28Z</time>
      </trkpt>
      <trkpt lat="43.37826" lon="5.9155">
        <ele>315.299988</ele>
        <time>2012-05-09T13:53:34Z</time>
      </trkpt>
      <trkpt lat="43.37825" lon="5.91539">
        <ele>316.600006</ele>
        <time>2012-05-09T13:53:45Z</time>
      </trkpt>
      <trkpt lat="43.37819" lon="5.9153">
        <ele>317.600006</ele>
        <time>2012-05-09T13:53:54Z</time>
      </trkpt>
      <trkpt lat="43.37813" lon="5.91518">
        <ele>319.200012</ele>
        <time>2012-05-09T13:54:08Z</time>
      </trkpt>
      <trkpt lat="43.37813" lon="5.91518">
        <ele>319.200012</ele>
        <time>2012-05-09T13:54:09Z</time>
      </trkpt>
      <trkpt lat="43.37805" lon="5.91497">
        <ele>322.299988</ele>
        <time>2012-05-09T13:54:33Z</time>
      </trkpt>
      <trkpt lat="43.37803" lon="5.91486">
        <ele>325</ele>
        <time>2012-05-09T13:54:46Z</time>
      </trkpt>
      <trkpt lat="43.37799" lon="5.91475">
        <ele>327</ele>
        <time>2012-05-09T13:54:59Z</time>
      </trkpt>
      <trkpt lat="43.37797" lon="5.91465">
        <ele>328.700012</ele>
        <time>2012-05-09T13:55:05Z</time>
      </trkpt>
      <trkpt lat="43.37792" lon="5.91454">
        <ele>330.399994</ele>
        <time>2012-05-09T13:55:20Z</time>
      </trkpt>
      <trkpt lat="43.37792" lon="5.91453">
        <ele>330.600006</ele>
        <time>2012-05-09T13:55:21Z</time>
      </trkpt>
      <trkpt lat="43.37783" lon="5.91435">
        <ele>335.100006</ele>
        <time>2012-05-09T13:55:47Z</time>
      </trkpt>
      <trkpt lat="43.37784" lon="5.91423">
        <ele>336.399994</ele>
        <time>2012-05-09T13:55:56Z</time>
      </trkpt>
      <trkpt lat="43.37779" lon="5.91414">
        <ele>338.399994</ele>
        <time>2012-05-09T13:56:06Z</time>
      </trkpt>
      <trkpt lat="43.37775" lon="5.91403">
        <ele>339.100006</ele>
        <time>2012-05-09T13:56:13Z</time>
      </trkpt>
      <trkpt lat="43.37769" lon="5.91394">
        <ele>339.700012</ele>
        <time>2012-05-09T13:56:24Z</time>
      </trkpt>
      <trkpt lat="43.37769" lon="5.91394">
        <ele>340.100006</ele>
        <time>2012-05-09T13:56:25Z</time>
      </trkpt>
      <trkpt lat="43.37756" lon="5.91381">
        <ele>342</ele>
        <time>2012-05-09T13:56:46Z</time>
      </trkpt>
      <trkpt lat="43.37762" lon="5.91372">
        <ele>342.399994</ele>
        <time>2012-05-09T13:57:02Z</time>
      </trkpt>
      <trkpt lat="43.37771" lon="5.9137">
        <ele>342</ele>
        <time>2012-05-09T13:57:25Z</time>
      </trkpt>
      <trkpt lat="43.37771" lon="5.91371">
        <ele>343.100006</ele>
        <time>2012-05-09T13:57:29Z</time>
      </trkpt>
      <trkpt lat="43.37775" lon="5.91378">
        <ele>343</ele>
        <time>2012-05-09T13:58:15Z</time>
      </trkpt>
      <trkpt lat="43.37767" lon="5.91372">
        <ele>343</ele>
        <time>2012-05-09T13:58:22Z</time>
      </trkpt>
      <trkpt lat="43.37769" lon="5.91383">
        <ele>343.399994</ele>
        <time>2012-05-09T13:58:34Z</time>
      </trkpt>
      <trkpt lat="43.37769" lon="5.91384">
        <ele>343.399994</ele>
        <time>2012-05-09T13:58:35Z</time>
      </trkpt>
      <trkpt lat="43.37771" lon="5.91377">
        <ele>346.100006</ele>
        <time>2012-05-09T13:59:04Z</time>
      </trkpt>
      <trkpt lat="43.37778" lon="5.91382">
        <ele>347</ele>
        <time>2012-05-09T13:59:17Z</time>
      </trkpt>
      <trkpt lat="43.37786" lon="5.91388">
        <ele>347.299988</ele>
        <time>2012-05-09T13:59:23Z</time>
      </trkpt>
      <trkpt lat="43.37793" lon="5.91393">
        <ele>348.200012</ele>
        <time>2012-05-09T13:59:31Z</time>
      </trkpt>
      <trkpt lat="43.378" lon="5.914">
        <ele>349.700012</ele>
        <time>2012-05-09T13:59:45Z</time>
      </trkpt>
      <trkpt lat="43.37801" lon="5.914">
        <ele>349.799988</ele>
        <time>2012-05-09T13:59:46Z</time>
      </trkpt>
      <trkpt lat="43.37813" lon="5.91413">
        <ele>352.299988</ele>
        <time>2012-05-09T14:00:05Z</time>
      </trkpt>
      <trkpt lat="43.37819" lon="5.91422">
        <ele>354.200012</ele>
        <time>2012-05-09T14:00:19Z</time>
      </trkpt>
      <trkpt lat="43.37826" lon="5.91429">
        <ele>357</ele>
        <time>2012-05-09T14:00:35Z</time>
      </trkpt>
      <trkpt lat="43.37834" lon="5.91434">
        <ele>358.899994</ele>
        <time>2012-05-09T14:00:49Z</time>
      </trkpt>
      <trkpt lat="43.37834" lon="5.91434">
        <ele>359</ele>
        <time>2012-05-09T14:00:50Z</time>
      </trkpt>
      <trkpt lat="43.37848" lon="5.91444">
        <ele>361.399994</ele>
        <time>2012-05-09T14:01:18Z</time>
      </trkpt>
      <trkpt lat="43.37857" lon="5.91447">
        <ele>363.399994</ele>
        <time>2012-05-09T14:01:33Z</time>
      </trkpt>
      <trkpt lat="43.37865" lon="5.91451">
        <ele>365.899994</ele>
        <time>2012-05-09T14:01:48Z</time>
      </trkpt>
      <trkpt lat="43.37874" lon="5.91454">
        <ele>367.799988</ele>
        <time>2012-05-09T14:02:05Z</time>
      </trkpt>
      <trkpt lat="43.37875" lon="5.91454">
        <ele>367.799988</ele>
        <time>2012-05-09T14:02:06Z</time>
      </trkpt>
      <trkpt lat="43.3789" lon="5.91464">
        <ele>371.5</ele>
        <time>2012-05-09T14:02:29Z</time>
      </trkpt>
      <trkpt lat="43.37899" lon="5.91462">
        <ele>374</ele>
        <time>2012-05-09T14:02:47Z</time>
      </trkpt>
      <trkpt lat="43.379" lon="5.91451">
        <ele>377.200012</ele>
        <time>2012-05-09T14:03:08Z</time>
      </trkpt>
      <trkpt lat="43.37901" lon="5.9145">
        <ele>377.299988</ele>
        <time>2012-05-09T14:03:09Z</time>
      </trkpt>
      <trkpt lat="43.37911" lon="5.91434">
        <ele>379.100006</ele>
        <time>2012-05-09T14:03:32Z</time>
      </trkpt>
      <trkpt lat="43.37913" lon="5.91422">
        <ele>381.299988</ele>
        <time>2012-05-09T14:03:47Z</time>
      </trkpt>
      <trkpt lat="43.37913" lon="5.9141">
        <ele>384.5</ele>
        <time>2012-05-09T14:04:08Z</time>
      </trkpt>
      <trkpt lat="43.37916" lon="5.91399">
        <ele>386.299988</ele>
        <time>2012-05-09T14:04:20Z</time>
      </trkpt>
      <trkpt lat="43.37916" lon="5.91398">
        <ele>386.100006</ele>
        <time>2012-05-09T14:04:21Z</time>
      </trkpt>
      <trkpt lat="43.37921" lon="5.91377">
        <ele>386.399994</ele>
        <time>2012-05-09T14:04:41Z</time>
      </trkpt>
      <trkpt lat="43.3792" lon="5.91366">
        <ele>386.200012</ele>
        <time>2012-05-09T14:04:46Z</time>
      </trkpt>
      <trkpt lat="43.3792" lon="5.91355">
        <ele>387</ele>
        <time>2012-05-09T14:04:58Z</time>
      </trkpt>
      <trkpt lat="43.37918" lon="5.91344">
        <ele>388</ele>
        <time>2012-05-09T14:05:11Z</time>
      </trkpt>
      <trkpt lat="43.37917" lon="5.91333">
        <ele>388.799988</ele>
        <time>2012-05-09T14:05:20Z</time>
      </trkpt>
      <trkpt lat="43.37918" lon="5.91321">
        <ele>388.799988</ele>
        <time>2012-05-09T14:05:28Z</time>
      </trkpt>
      <trkpt lat="43.37919" lon="5.9132">
        <ele>388.899994</ele>
        <time>2012-05-09T14:05:29Z</time>
      </trkpt>
      <trkpt lat="43.37922" lon="5.91298">
        <ele>390.399994</ele>
        <time>2012-05-09T14:05:46Z</time>
      </trkpt>
      <trkpt lat="43.3792" lon="5.91286">
        <ele>392</ele>
        <time>2012-05-09T14:06:00Z</time>
      </trkpt>
      <trkpt lat="43.37924" lon="5.91275">
        <ele>394.299988</ele>
        <time>2012-05-09T14:06:11Z</time>
      </trkpt>
      <trkpt lat="43.37931" lon="5.91267">
        <ele>396.399994</ele>
        <time>2012-05-09T14:06:26Z</time>
      </trkpt>
      <trkpt lat="43.37938" lon="5.91259">
        <ele>397.899994</ele>
        <time>2012-05-09T14:06:35Z</time>
      </trkpt>
      <trkpt lat="43.37938" lon="5.91258">
        <ele>397.899994</ele>
        <time>2012-05-09T14:06:36Z</time>
      </trkpt>
      <trkpt lat="43.37944" lon="5.91239">
        <ele>401.200012</ele>
        <time>2012-05-09T14:07:00Z</time>
      </trkpt>
      <trkpt lat="43.37948" lon="5.91229">
        <ele>401.600006</ele>
        <time>2012-05-09T14:07:08Z</time>
      </trkpt>
      <trkpt lat="43.37947" lon="5.91217">
        <ele>402.899994</ele>
        <time>2012-05-09T14:07:18Z</time>
      </trkpt>
      <trkpt lat="43.3795" lon="5.91206">
        <ele>403.600006</ele>
        <time>2012-05-09T14:07:30Z</time>
      </trkpt>
      <trkpt lat="43.37949" lon="5.91195">
        <ele>404.200012</ele>
        <time>2012-05-09T14:07:39Z</time>
      </trkpt>
      <trkpt lat="43.37948" lon="5.91193">
        <ele>404.399994</ele>
        <time>2012-05-09T14:07:40Z</time>
      </trkpt>
      <trkpt lat="43.37952" lon="5.91173">
        <ele>405.799988</ele>
        <time>2012-05-09T14:08:00Z</time>
      </trkpt>
      <trkpt lat="43.37955" lon="5.91161">
        <ele>406.700012</ele>
        <time>2012-05-09T14:08:08Z</time>
      </trkpt>
      <trkpt lat="43.37963" lon="5.91157">
        <ele>408.600006</ele>
        <time>2012-05-09T14:08:24Z</time>
      </trkpt>
      <trkpt lat="43.37971" lon="5.91161">
        <ele>408.899994</ele>
        <time>2012-05-09T14:14:59Z</time>
      </trkpt>
      <trkpt lat="43.37972" lon="5.91161">
        <ele>409</ele>
        <time>2012-05-09T14:15:00Z</time>
      </trkpt>
      <trkpt lat="43.37972" lon="5.91175">
        <ele>409.299988</ele>
        <time>2012-05-09T14:16:18Z</time>
      </trkpt>
      <trkpt lat="43.37981" lon="5.91193">
        <ele>408.700012</ele>
        <time>2012-05-09T14:16:37Z</time>
      </trkpt>
      <trkpt lat="43.37983" lon="5.91204">
        <ele>408.700012</ele>
        <time>2012-05-09T14:16:45Z</time>
      </trkpt>
      <trkpt lat="43.37982" lon="5.91215">
        <ele>408.299988</ele>
        <time>2012-05-09T14:16:53Z</time>
      </trkpt>
      <trkpt lat="43.37987" lon="5.91223">
        <ele>407.799988</ele>
        <time>2012-05-09T14:17:00Z</time>
      </trkpt>
      <trkpt lat="43.37993" lon="5.91231">
        <ele>407.899994</ele>
        <time>2012-05-09T14:17:08Z</time>
      </trkpt>
      <trkpt lat="43.37997" lon="5.91242">
        <ele>409.899994</ele>
        <time>2012-05-09T14:17:26Z</time>
      </trkpt>
      <trkpt lat="43.37997" lon="5.91242">
        <ele>410</ele>
        <time>2012-05-09T14:17:27Z</time>
      </trkpt>
      <trkpt lat="43.38002" lon="5.91265">
        <ele>411.600006</ele>
        <time>2012-05-09T14:17:51Z</time>
      </trkpt>
      <trkpt lat="43.38008" lon="5.91273">
        <ele>413.399994</ele>
        <time>2012-05-09T14:18:01Z</time>
      </trkpt>
      <trkpt lat="43.38013" lon="5.91283">
        <ele>414.299988</ele>
        <time>2012-05-09T14:18:10Z</time>
      </trkpt>
      <trkpt lat="43.38014" lon="5.91295">
        <ele>414.700012</ele>
        <time>2012-05-09T14:18:17Z</time>
      </trkpt>
      <trkpt lat="43.38018" lon="5.91306">
        <ele>415.200012</ele>
        <time>2012-05-09T14:18:26Z</time>
      </trkpt>
      <trkpt lat="43.38019" lon="5.91318">
        <ele>415.200012</ele>
        <time>2012-05-09T14:18:34Z</time>
      </trkpt>
      <trkpt lat="43.38019" lon="5.91319">
        <ele>415.100006</ele>
        <time>2012-05-09T14:18:35Z</time>
      </trkpt>
      <trkpt lat="43.38021" lon="5.91341">
        <ele>415.700012</ele>
        <time>2012-05-09T14:18:50Z</time>
      </trkpt>
      <trkpt lat="43.38024" lon="5.91352">
        <ele>415.5</ele>
        <time>2012-05-09T14:18:59Z</time>
      </trkpt>
      <trkpt lat="43.38026" lon="5.91364">
        <ele>415.5</ele>
        <time>2012-05-09T14:19:08Z</time>
      </trkpt>
      <trkpt lat="43.38025" lon="5.91376">
        <ele>416</ele>
        <time>2012-05-09T14:19:17Z</time>
      </trkpt>
      <trkpt lat="43.38028" lon="5.91387">
        <ele>415.799988</ele>
        <time>2012-05-09T14:19:28Z</time>
      </trkpt>
      <trkpt lat="43.38032" lon="5.91397">
        <ele>415.899994</ele>
        <time>2012-05-09T14:19:39Z</time>
      </trkpt>
      <trkpt lat="43.38033" lon="5.91398">
        <ele>415.899994</ele>
        <time>2012-05-09T14:19:40Z</time>
      </trkpt>
      <trkpt lat="43.38042" lon="5.91415">
        <ele>418.100006</ele>
        <time>2012-05-09T14:20:02Z</time>
      </trkpt>
      <trkpt lat="43.38045" lon="5.91425">
        <ele>419.200012</ele>
        <time>2012-05-09T14:20:12Z</time>
      </trkpt>
      <trkpt lat="43.38049" lon="5.91435">
        <ele>419.200012</ele>
        <time>2012-05-09T14:20:21Z</time>
      </trkpt>
      <trkpt lat="43.38054" lon="5.91445">
        <ele>419.299988</ele>
        <time>2012-05-09T14:20:30Z</time>
      </trkpt>
      <trkpt lat="43.38062" lon="5.91451">
        <ele>420</ele>
        <time>2012-05-09T14:20:43Z</time>
      </trkpt>
      <trkpt lat="43.38062" lon="5.91452">
        <ele>420</ele>
        <time>2012-05-09T14:20:44Z</time>
      </trkpt>
      <trkpt lat="43.38069" lon="5.91472">
        <ele>420</ele>
        <time>2012-05-09T14:21:04Z</time>
      </trkpt>
      <trkpt lat="43.3807" lon="5.91484">
        <ele>419.600006</ele>
        <time>2012-05-09T14:21:13Z</time>
      </trkpt>
      <trkpt lat="43.38074" lon="5.91494">
        <ele>419.799988</ele>
        <time>2012-05-09T14:21:22Z</time>
      </trkpt>
      <trkpt lat="43.38081" lon="5.91501">
        <ele>420.399994</ele>
        <time>2012-05-09T14:21:35Z</time>
      </trkpt>
      <trkpt lat="43.38086" lon="5.91511">
        <ele>420.700012</ele>
        <time>2012-05-09T14:21:45Z</time>
      </trkpt>
      <trkpt lat="43.38086" lon="5.91512">
        <ele>420.399994</ele>
        <time>2012-05-09T14:21:46Z</time>
      </trkpt>
      <trkpt lat="43.38098" lon="5.91528">
        <ele>420.899994</ele>
        <time>2012-05-09T14:22:09Z</time>
      </trkpt>
      <trkpt lat="43.38102" lon="5.91538">
        <ele>421</ele>
        <time>2012-05-09T14:22:18Z</time>
      </trkpt>
      <trkpt lat="43.38107" lon="5.91547">
        <ele>420.899994</ele>
        <time>2012-05-09T14:22:28Z</time>
      </trkpt>
      <trkpt lat="43.38112" lon="5.91557">
        <ele>420.899994</ele>
        <time>2012-05-09T14:22:36Z</time>
      </trkpt>
      <trkpt lat="43.3812" lon="5.91564">
        <ele>422.700012</ele>
        <time>2012-05-09T14:22:48Z</time>
      </trkpt>
      <trkpt lat="43.3812" lon="5.91564">
        <ele>423.100006</ele>
        <time>2012-05-09T14:22:49Z</time>
      </trkpt>
      <trkpt lat="43.38127" lon="5.91583">
        <ele>423.5</ele>
        <time>2012-05-09T14:23:09Z</time>
      </trkpt>
      <trkpt lat="43.38129" lon="5.91595">
        <ele>423.600006</ele>
        <time>2012-05-09T14:23:20Z</time>
      </trkpt>
      <trkpt lat="43.38134" lon="5.91605">
        <ele>423.700012</ele>
        <time>2012-05-09T14:23:27Z</time>
      </trkpt>
      <trkpt lat="43.38136" lon="5.91616">
        <ele>423.200012</ele>
        <time>2012-05-09T14:23:38Z</time>
      </trkpt>
      <trkpt lat="43.3814" lon="5.91627">
        <ele>422.600006</ele>
        <time>2012-05-09T14:23:50Z</time>
      </trkpt>
      <trkpt lat="43.38141" lon="5.91627">
        <ele>422.399994</ele>
        <time>2012-05-09T14:23:51Z</time>
      </trkpt>
      <trkpt lat="43.38144" lon="5.9165">
        <ele>421.700012</ele>
        <time>2012-05-09T14:24:44Z</time>
      </trkpt>
      <trkpt lat="43.38151" lon="5.91658">
        <ele>421.899994</ele>
        <time>2012-05-09T14:24:56Z</time>
      </trkpt>
      <trkpt lat="43.38151" lon="5.91659">
        <ele>422.100006</ele>
        <time>2012-05-09T14:24:57Z</time>
      </trkpt>
      <trkpt lat="43.38166" lon="5.91669">
        <ele>423.399994</ele>
        <time>2012-05-09T14:25:31Z</time>
      </trkpt>
      <trkpt lat="43.38174" lon="5.91672">
        <ele>425.700012</ele>
        <time>2012-05-09T14:25:49Z</time>
      </trkpt>
      <trkpt lat="43.38182" lon="5.91668">
        <ele>427.700012</ele>
        <time>2012-05-09T14:26:59Z</time>
      </trkpt>
      <trkpt lat="43.38182" lon="5.91667">
        <ele>427.700012</ele>
        <time>2012-05-09T14:27:00Z</time>
      </trkpt>
      <trkpt lat="43.38188" lon="5.91646">
        <ele>431.399994</ele>
        <time>2012-05-09T14:27:38Z</time>
      </trkpt>
      <trkpt lat="43.38193" lon="5.91635">
        <ele>433.899994</ele>
        <time>2012-05-09T14:27:56Z</time>
      </trkpt>
      <trkpt lat="43.38192" lon="5.91623">
        <ele>436</ele>
        <time>2012-05-09T14:30:22Z</time>
      </trkpt>
      <trkpt lat="43.38192" lon="5.91622">
        <ele>436</ele>
        <time>2012-05-09T14:30:23Z</time>
      </trkpt>
      <trkpt lat="43.38204" lon="5.91606">
        <ele>439.899994</ele>
        <time>2012-05-09T14:30:57Z</time>
      </trkpt>
      <trkpt lat="43.3821" lon="5.91597">
        <ele>442.299988</ele>
        <time>2012-05-09T14:31:17Z</time>
      </trkpt>
      <trkpt lat="43.38219" lon="5.91597">
        <ele>444.200012</ele>
        <time>2012-05-09T14:31:32Z</time>
      </trkpt>
      <trkpt lat="43.38219" lon="5.91596">
        <ele>444.399994</ele>
        <time>2012-05-09T14:31:33Z</time>
      </trkpt>
      <trkpt lat="43.38227" lon="5.91578">
        <ele>447.700012</ele>
        <time>2012-05-09T14:32:05Z</time>
      </trkpt>
      <trkpt lat="43.38233" lon="5.91568">
        <ele>449.600006</ele>
        <time>2012-05-09T14:32:21Z</time>
      </trkpt>
      <trkpt lat="43.38236" lon="5.91557">
        <ele>451.5</ele>
        <time>2012-05-09T14:32:36Z</time>
      </trkpt>
      <trkpt lat="43.38236" lon="5.91556">
        <ele>451.600006</ele>
        <time>2012-05-09T14:32:37Z</time>
      </trkpt>
      <trkpt lat="43.38245" lon="5.91537">
        <ele>455.200012</ele>
        <time>2012-05-09T14:33:09Z</time>
      </trkpt>
      <trkpt lat="43.38251" lon="5.91529">
        <ele>457.600006</ele>
        <time>2012-05-09T14:33:26Z</time>
      </trkpt>
      <trkpt lat="43.3826" lon="5.91524">
        <ele>458.299988</ele>
        <time>2012-05-09T14:33:37Z</time>
      </trkpt>
      <trkpt lat="43.38261" lon="5.91524">
        <ele>458.600006</ele>
        <time>2012-05-09T14:33:38Z</time>
      </trkpt>
      <trkpt lat="43.38276" lon="5.91519">
        <ele>461</ele>
        <time>2012-05-09T14:34:01Z</time>
      </trkpt>
      <trkpt lat="43.38282" lon="5.9151">
        <ele>461.799988</ele>
        <time>2012-05-09T14:34:23Z</time>
      </trkpt>
      <trkpt lat="43.38288" lon="5.91501">
        <ele>462.200012</ele>
        <time>2012-05-09T14:34:36Z</time>
      </trkpt>
      <trkpt lat="43.38297" lon="5.91501">
        <ele>463.100006</ele>
        <time>2012-05-09T14:34:55Z</time>
      </trkpt>
      <trkpt lat="43.38297" lon="5.915">
        <ele>463.200012</ele>
        <time>2012-05-09T14:34:56Z</time>
      </trkpt>
      <trkpt lat="43.38311" lon="5.9149">
        <ele>463.399994</ele>
        <time>2012-05-09T14:36:14Z</time>
      </trkpt>
      <trkpt lat="43.38312" lon="5.91489">
        <ele>463.5</ele>
        <time>2012-05-09T14:36:15Z</time>
      </trkpt>
      <trkpt lat="43.3832" lon="5.91494">
        <ele>465.200012</ele>
        <time>2012-05-09T14:37:47Z</time>
      </trkpt>
      <trkpt lat="43.38325" lon="5.91515">
        <ele>464.299988</ele>
        <time>2012-05-09T14:38:05Z</time>
      </trkpt>
      <trkpt lat="43.38328" lon="5.91526">
        <ele>464.600006</ele>
        <time>2012-05-09T14:38:13Z</time>
      </trkpt>
      <trkpt lat="43.38329" lon="5.91538">
        <ele>464.299988</ele>
        <time>2012-05-09T14:38:22Z</time>
      </trkpt>
      <trkpt lat="43.38327" lon="5.91549">
        <ele>464.299988</ele>
        <time>2012-05-09T14:38:29Z</time>
      </trkpt>
      <trkpt lat="43.38329" lon="5.91561">
        <ele>463.299988</ele>
        <time>2012-05-09T14:38:39Z</time>
      </trkpt>
      <trkpt lat="43.38331" lon="5.91572">
        <ele>463.299988</ele>
        <time>2012-05-09T14:38:50Z</time>
      </trkpt>
      <trkpt lat="43.38331" lon="5.91573">
        <ele>463.299988</ele>
        <time>2012-05-09T14:38:51Z</time>
      </trkpt>
      <trkpt lat="43.38346" lon="5.91584">
        <ele>462.399994</ele>
        <time>2012-05-09T14:39:08Z</time>
      </trkpt>
      <trkpt lat="43.3835" lon="5.91592">
        <ele>461.299988</ele>
        <time>2012-05-09T14:39:16Z</time>
      </trkpt>
      <trkpt lat="43.38358" lon="5.91598">
        <ele>461.799988</ele>
        <time>2012-05-09T14:39:22Z</time>
      </trkpt>
      <trkpt lat="43.38365" lon="5.91601">
        <ele>461.899994</ele>
        <time>2012-05-09T14:39:29Z</time>
      </trkpt>
      <trkpt lat="43.38372" lon="5.91607">
        <ele>462.200012</ele>
        <time>2012-05-09T14:39:36Z</time>
      </trkpt>
      <trkpt lat="43.3838" lon="5.91614">
        <ele>462.200012</ele>
        <time>2012-05-09T14:39:45Z</time>
      </trkpt>
      <trkpt lat="43.38388" lon="5.91618">
        <ele>462.100006</ele>
        <time>2012-05-09T14:39:54Z</time>
      </trkpt>
      <trkpt lat="43.38389" lon="5.91619">
        <ele>462.200012</ele>
        <time>2012-05-09T14:39:55Z</time>
      </trkpt>
      <trkpt lat="43.38403" lon="5.91628">
        <ele>462.799988</ele>
        <time>2012-05-09T14:40:09Z</time>
      </trkpt>
      <trkpt lat="43.38408" lon="5.91637">
        <ele>462.299988</ele>
        <time>2012-05-09T14:40:33Z</time>
      </trkpt>
      <trkpt lat="43.38415" lon="5.91642">
        <ele>462.299988</ele>
        <time>2012-05-09T14:40:43Z</time>
      </trkpt>
      <trkpt lat="43.38423" lon="5.91648">
        <ele>462.600006</ele>
        <time>2012-05-09T14:40:53Z</time>
      </trkpt>
      <trkpt lat="43.38431" lon="5.9165">
        <ele>462.700012</ele>
        <time>2012-05-09T14:41:01Z</time>
      </trkpt>
      <trkpt lat="43.38432" lon="5.9165">
        <ele>462.799988</ele>
        <time>2012-05-09T14:41:02Z</time>
      </trkpt>
      <trkpt lat="43.38444" lon="5.91663">
        <ele>463.399994</ele>
        <time>2012-05-09T14:41:16Z</time>
      </trkpt>
      <trkpt lat="43.3845" lon="5.91671">
        <ele>464.200012</ele>
        <time>2012-05-09T14:41:26Z</time>
      </trkpt>
      <trkpt lat="43.38457" lon="5.91676">
        <ele>464.200012</ele>
        <time>2012-05-09T14:41:35Z</time>
      </trkpt>
      <trkpt lat="43.38465" lon="5.91683">
        <ele>464.200012</ele>
        <time>2012-05-09T14:41:46Z</time>
      </trkpt>
      <trkpt lat="43.38469" lon="5.91693">
        <ele>464.5</ele>
        <time>2012-05-09T14:42:10Z</time>
      </trkpt>
      <trkpt lat="43.3847" lon="5.91694">
        <ele>464.299988</ele>
        <time>2012-05-09T14:42:11Z</time>
      </trkpt>
      <trkpt lat="43.38484" lon="5.91697">
        <ele>464.5</ele>
        <time>2012-05-09T14:42:30Z</time>
      </trkpt>
      <trkpt lat="43.38493" lon="5.91695">
        <ele>464.899994</ele>
        <time>2012-05-09T14:42:40Z</time>
      </trkpt>
      <trkpt lat="43.38501" lon="5.91696">
        <ele>465.299988</ele>
        <time>2012-05-09T14:42:47Z</time>
      </trkpt>
      <trkpt lat="43.38509" lon="5.917">
        <ele>466</ele>
        <time>2012-05-09T14:42:56Z</time>
      </trkpt>
      <trkpt lat="43.38517" lon="5.91696">
        <ele>466.299988</ele>
        <time>2012-05-09T14:43:06Z</time>
      </trkpt>
      <trkpt lat="43.38525" lon="5.91697">
        <ele>466.399994</ele>
        <time>2012-05-09T14:43:18Z</time>
      </trkpt>
      <trkpt lat="43.38526" lon="5.91697">
        <ele>466.700012</ele>
        <time>2012-05-09T14:43:19Z</time>
      </trkpt>
      <trkpt lat="43.38541" lon="5.91705">
        <ele>467.5</ele>
        <time>2012-05-09T14:43:39Z</time>
      </trkpt>
      <trkpt lat="43.38548" lon="5.91711">
        <ele>467.600006</ele>
        <time>2012-05-09T14:43:48Z</time>
      </trkpt>
      <trkpt lat="43.38553" lon="5.91721">
        <ele>469.100006</ele>
        <time>2012-05-09T14:44:00Z</time>
      </trkpt>
      <trkpt lat="43.38558" lon="5.91732">
        <ele>469.899994</ele>
        <time>2012-05-09T14:44:12Z</time>
      </trkpt>
      <trkpt lat="43.3856" lon="5.91742">
        <ele>469.899994</ele>
        <time>2012-05-09T14:44:19Z</time>
      </trkpt>
      <trkpt lat="43.38561" lon="5.91744">
        <ele>470</ele>
        <time>2012-05-09T14:44:20Z</time>
      </trkpt>
      <trkpt lat="43.38576" lon="5.91753">
        <ele>471.600006</ele>
        <time>2012-05-09T14:44:40Z</time>
      </trkpt>
      <trkpt lat="43.38583" lon="5.9176">
        <ele>471.799988</ele>
        <time>2012-05-09T14:44:51Z</time>
      </trkpt>
      <trkpt lat="43.38591" lon="5.91763">
        <ele>471.799988</ele>
        <time>2012-05-09T14:45:00Z</time>
      </trkpt>
      <trkpt lat="43.38597" lon="5.91754">
        <ele>472.200012</ele>
        <time>2012-05-09T14:45:14Z</time>
      </trkpt>
      <trkpt lat="43.38602" lon="5.91745">
        <ele>472.899994</ele>
        <time>2012-05-09T14:45:27Z</time>
      </trkpt>
      <trkpt lat="43.38602" lon="5.91744">
        <ele>473</ele>
        <time>2012-05-09T14:45:28Z</time>
      </trkpt>
      <trkpt lat="43.3861" lon="5.91724">
        <ele>474.299988</ele>
        <time>2012-05-09T14:45:47Z</time>
      </trkpt>
      <trkpt lat="43.38613" lon="5.91713">
        <ele>475.200012</ele>
        <time>2012-05-09T14:45:59Z</time>
      </trkpt>
      <trkpt lat="43.38615" lon="5.91703">
        <ele>476.299988</ele>
        <time>2012-05-09T14:46:09Z</time>
      </trkpt>
      <trkpt lat="43.3862" lon="5.91693">
        <ele>477.799988</ele>
        <time>2012-05-09T14:46:22Z</time>
      </trkpt>
      <trkpt lat="43.38625" lon="5.91683">
        <ele>479</ele>
        <time>2012-05-09T14:46:35Z</time>
      </trkpt>
      <trkpt lat="43.38625" lon="5.91682">
        <ele>479.100006</ele>
        <time>2012-05-09T14:46:36Z</time>
      </trkpt>
      <trkpt lat="43.38639" lon="5.91669">
        <ele>481</ele>
        <time>2012-05-09T14:46:57Z</time>
      </trkpt>
      <trkpt lat="43.38647" lon="5.91665">
        <ele>481.899994</ele>
        <time>2012-05-09T14:47:06Z</time>
      </trkpt>
      <trkpt lat="43.38654" lon="5.91659">
        <ele>482.700012</ele>
        <time>2012-05-09T14:47:15Z</time>
      </trkpt>
      <trkpt lat="43.3866" lon="5.91651">
        <ele>483.299988</ele>
        <time>2012-05-09T14:47:25Z</time>
      </trkpt>
      <trkpt lat="43.38668" lon="5.91648">
        <ele>483.700012</ele>
        <time>2012-05-09T14:47:34Z</time>
      </trkpt>
      <trkpt lat="43.38677" lon="5.91646">
        <ele>485.5</ele>
        <time>2012-05-09T14:47:47Z</time>
      </trkpt>
      <trkpt lat="43.38678" lon="5.91646">
        <ele>485.5</ele>
        <time>2012-05-09T14:47:48Z</time>
      </trkpt>
      <trkpt lat="43.38694" lon="5.91646">
        <ele>486.5</ele>
        <time>2012-05-09T14:48:03Z</time>
      </trkpt>
      <trkpt lat="43.38702" lon="5.91649">
        <ele>486.899994</ele>
        <time>2012-05-09T14:48:11Z</time>
      </trkpt>
      <trkpt lat="43.3871" lon="5.91654">
        <ele>488</ele>
        <time>2012-05-09T14:48:21Z</time>
      </trkpt>
      <trkpt lat="43.38719" lon="5.91656">
        <ele>488.899994</ele>
        <time>2012-05-09T14:48:31Z</time>
      </trkpt>
      <trkpt lat="43.38726" lon="5.91662">
        <ele>489.600006</ele>
        <time>2012-05-09T14:48:38Z</time>
      </trkpt>
      <trkpt lat="43.38733" lon="5.91669">
        <ele>490.5</ele>
        <time>2012-05-09T14:48:47Z</time>
      </trkpt>
      <trkpt lat="43.38741" lon="5.91674">
        <ele>491.700012</ele>
        <time>2012-05-09T14:48:57Z</time>
      </trkpt>
      <trkpt lat="43.38741" lon="5.91675">
        <ele>492</ele>
        <time>2012-05-09T14:48:58Z</time>
      </trkpt>
      <trkpt lat="43.38755" lon="5.91687">
        <ele>494.200012</ele>
        <time>2012-05-09T14:49:18Z</time>
      </trkpt>
      <trkpt lat="43.38761" lon="5.91694">
        <ele>495.5</ele>
        <time>2012-05-09T14:49:28Z</time>
      </trkpt>
      <trkpt lat="43.38767" lon="5.91703">
        <ele>495.799988</ele>
        <time>2012-05-09T14:50:04Z</time>
      </trkpt>
      <trkpt lat="43.38768" lon="5.91704">
        <ele>495.799988</ele>
        <time>2012-05-09T14:50:05Z</time>
      </trkpt>
      <trkpt lat="43.38773" lon="5.91726">
        <ele>497.5</ele>
        <time>2012-05-09T14:51:05Z</time>
      </trkpt>
      <trkpt lat="43.38773" lon="5.91726">
        <ele>497.5</ele>
        <time>2012-05-09T14:51:06Z</time>
      </trkpt>
      <trkpt lat="43.38786" lon="5.91742">
        <ele>499.700012</ele>
        <time>2012-05-09T14:51:54Z</time>
      </trkpt>
      <trkpt lat="43.38791" lon="5.91751">
        <ele>500.600006</ele>
        <time>2012-05-09T14:52:04Z</time>
      </trkpt>
      <trkpt lat="43.38797" lon="5.91759">
        <ele>501</ele>
        <time>2012-05-09T14:52:15Z</time>
      </trkpt>
      <trkpt lat="43.38797" lon="5.9176">
        <ele>501.100006</ele>
        <time>2012-05-09T14:52:16Z</time>
      </trkpt>
      <trkpt lat="43.38808" lon="5.91776">
        <ele>502.600006</ele>
        <time>2012-05-09T14:52:31Z</time>
      </trkpt>
      <trkpt lat="43.38814" lon="5.91785">
        <ele>501.899994</ele>
        <time>2012-05-09T14:52:40Z</time>
      </trkpt>
      <trkpt lat="43.3882" lon="5.91793">
        <ele>502.600006</ele>
        <time>2012-05-09T14:52:48Z</time>
      </trkpt>
      <trkpt lat="43.38828" lon="5.91797">
        <ele>503.299988</ele>
        <time>2012-05-09T14:52:59Z</time>
      </trkpt>
      <trkpt lat="43.38836" lon="5.91797">
        <ele>504.299988</ele>
        <time>2012-05-09T14:53:07Z</time>
      </trkpt>
      <trkpt lat="43.38844" lon="5.91794">
        <ele>506.100006</ele>
        <time>2012-05-09T14:53:17Z</time>
      </trkpt>
      <trkpt lat="43.38845" lon="5.91795">
        <ele>506.100006</ele>
        <time>2012-05-09T14:53:18Z</time>
      </trkpt>
      <trkpt lat="43.3886" lon="5.91791">
        <ele>507.299988</ele>
        <time>2012-05-09T14:53:34Z</time>
      </trkpt>
      <trkpt lat="43.38869" lon="5.9179">
        <ele>507.5</ele>
        <time>2012-05-09T14:53:42Z</time>
      </trkpt>
      <trkpt lat="43.38878" lon="5.91792">
        <ele>507.5</ele>
        <time>2012-05-09T14:53:50Z</time>
      </trkpt>
      <trkpt lat="43.38886" lon="5.91794">
        <ele>507.200012</ele>
        <time>2012-05-09T14:53:58Z</time>
      </trkpt>
      <trkpt lat="43.38894" lon="5.91797">
        <ele>507.399994</ele>
        <time>2012-05-09T14:54:05Z</time>
      </trkpt>
      <trkpt lat="43.38902" lon="5.91801">
        <ele>507.5</ele>
        <time>2012-05-09T14:54:12Z</time>
      </trkpt>
      <trkpt lat="43.38909" lon="5.91807">
        <ele>507.600006</ele>
        <time>2012-05-09T14:54:20Z</time>
      </trkpt>
      <trkpt lat="43.3891" lon="5.91808">
        <ele>507.700012</ele>
        <time>2012-05-09T14:54:21Z</time>
      </trkpt>
      <trkpt lat="43.38924" lon="5.91814">
        <ele>507.600006</ele>
        <time>2012-05-09T14:54:35Z</time>
      </trkpt>
      <trkpt lat="43.38933" lon="5.91813">
        <ele>508.5</ele>
        <time>2012-05-09T14:54:44Z</time>
      </trkpt>
      <trkpt lat="43.38941" lon="5.91815">
        <ele>509.200012</ele>
        <time>2012-05-09T14:54:53Z</time>
      </trkpt>
      <trkpt lat="43.3895" lon="5.91814">
        <ele>509.700012</ele>
        <time>2012-05-09T14:55:03Z</time>
      </trkpt>
      <trkpt lat="43.38958" lon="5.91815">
        <ele>509.799988</ele>
        <time>2012-05-09T14:55:09Z</time>
      </trkpt>
      <trkpt lat="43.38966" lon="5.91817">
        <ele>510.200012</ele>
        <time>2012-05-09T14:55:17Z</time>
      </trkpt>
      <trkpt lat="43.38974" lon="5.91816">
        <ele>510.299988</ele>
        <time>2012-05-09T14:55:25Z</time>
      </trkpt>
      <trkpt lat="43.38975" lon="5.91816">
        <ele>510.399994</ele>
        <time>2012-05-09T14:55:26Z</time>
      </trkpt>
      <trkpt lat="43.38989" lon="5.91812">
        <ele>510.399994</ele>
        <time>2012-05-09T14:55:39Z</time>
      </trkpt>
      <trkpt lat="43.38998" lon="5.91814">
        <ele>510.700012</ele>
        <time>2012-05-09T14:55:45Z</time>
      </trkpt>
      <trkpt lat="43.39005" lon="5.9182">
        <ele>511</ele>
        <time>2012-05-09T14:55:51Z</time>
      </trkpt>
      <trkpt lat="43.3901" lon="5.91829">
        <ele>511.700012</ele>
        <time>2012-05-09T14:55:59Z</time>
      </trkpt>
      <trkpt lat="43.39015" lon="5.91839">
        <ele>513</ele>
        <time>2012-05-09T14:56:08Z</time>
      </trkpt>
      <trkpt lat="43.39021" lon="5.91846">
        <ele>513.799988</ele>
        <time>2012-05-09T14:56:16Z</time>
      </trkpt>
      <trkpt lat="43.39029" lon="5.91847">
        <ele>514.400024</ele>
        <time>2012-05-09T14:56:24Z</time>
      </trkpt>
      <trkpt lat="43.39036" lon="5.91853">
        <ele>514.400024</ele>
        <time>2012-05-09T14:56:32Z</time>
      </trkpt>
      <trkpt lat="43.39037" lon="5.91854">
        <ele>514.599976</ele>
        <time>2012-05-09T14:56:33Z</time>
      </trkpt>
      <trkpt lat="43.39051" lon="5.91864">
        <ele>516.799988</ele>
        <time>2012-05-09T14:56:49Z</time>
      </trkpt>
      <trkpt lat="43.39058" lon="5.91872">
        <ele>517.700012</ele>
        <time>2012-05-09T14:56:58Z</time>
      </trkpt>
      <trkpt lat="43.39065" lon="5.91878">
        <ele>518.700012</ele>
        <time>2012-05-09T14:57:07Z</time>
      </trkpt>
      <trkpt lat="43.39072" lon="5.91884">
        <ele>519.5</ele>
        <time>2012-05-09T14:57:19Z</time>
      </trkpt>
      <trkpt lat="43.39079" lon="5.91891">
        <ele>520.299988</ele>
        <time>2012-05-09T14:57:31Z</time>
      </trkpt>
      <trkpt lat="43.39086" lon="5.91898">
        <ele>521.599976</ele>
        <time>2012-05-09T14:57:41Z</time>
      </trkpt>
      <trkpt lat="43.39087" lon="5.91899">
        <ele>521.799988</ele>
        <time>2012-05-09T14:57:42Z</time>
      </trkpt>
      <trkpt lat="43.39098" lon="5.91914">
        <ele>521.5</ele>
        <time>2012-05-09T14:57:59Z</time>
      </trkpt>
      <trkpt lat="43.39102" lon="5.91924">
        <ele>521.299988</ele>
        <time>2012-05-09T14:58:07Z</time>
      </trkpt>
      <trkpt lat="43.39105" lon="5.91934">
        <ele>521.299988</ele>
        <time>2012-05-09T14:58:14Z</time>
      </trkpt>
      <trkpt lat="43.39109" lon="5.91944">
        <ele>520.900024</ele>
        <time>2012-05-09T14:58:22Z</time>
      </trkpt>
      <trkpt lat="43.39112" lon="5.91955">
        <ele>520.299988</ele>
        <time>2012-05-09T14:58:30Z</time>
      </trkpt>
      <trkpt lat="43.39113" lon="5.91966">
        <ele>519.700012</ele>
        <time>2012-05-09T14:58:37Z</time>
      </trkpt>
      <trkpt lat="43.39116" lon="5.91977">
        <ele>519.299988</ele>
        <time>2012-05-09T14:58:45Z</time>
      </trkpt>
      <trkpt lat="43.39116" lon="5.91979">
        <ele>519.299988</ele>
        <time>2012-05-09T14:58:46Z</time>
      </trkpt>
      <trkpt lat="43.39121" lon="5.92">
        <ele>518.700012</ele>
        <time>2012-05-09T14:59:01Z</time>
      </trkpt>
      <trkpt lat="43.39121" lon="5.92012">
        <ele>517.900024</ele>
        <time>2012-05-09T14:59:09Z</time>
      </trkpt>
      <trkpt lat="43.39123" lon="5.92024">
        <ele>517</ele>
        <time>2012-05-09T14:59:17Z</time>
      </trkpt>
      <trkpt lat="43.39125" lon="5.92035">
        <ele>516.099976</ele>
        <time>2012-05-09T14:59:25Z</time>
      </trkpt>
      <trkpt lat="43.39127" lon="5.92046">
        <ele>515.900024</ele>
        <time>2012-05-09T14:59:33Z</time>
      </trkpt>
      <trkpt lat="43.3913" lon="5.92057">
        <ele>514.5</ele>
        <time>2012-05-09T14:59:41Z</time>
      </trkpt>
      <trkpt lat="43.39132" lon="5.92068">
        <ele>514.299988</ele>
        <time>2012-05-09T14:59:48Z</time>
      </trkpt>
      <trkpt lat="43.39132" lon="5.9207">
        <ele>514.299988</ele>
        <time>2012-05-09T14:59:49Z</time>
      </trkpt>
      <trkpt lat="43.39138" lon="5.9209">
        <ele>512.799988</ele>
        <time>2012-05-09T15:00:04Z</time>
      </trkpt>
      <trkpt lat="43.39143" lon="5.921">
        <ele>512.400024</ele>
        <time>2012-05-09T15:00:12Z</time>
      </trkpt>
      <trkpt lat="43.39148" lon="5.92109">
        <ele>511.899994</ele>
        <time>2012-05-09T15:00:20Z</time>
      </trkpt>
      <trkpt lat="43.39152" lon="5.9212">
        <ele>511.700012</ele>
        <time>2012-05-09T15:00:28Z</time>
      </trkpt>
      <trkpt lat="43.39153" lon="5.92132">
        <ele>511.799988</ele>
        <time>2012-05-09T15:00:36Z</time>
      </trkpt>
      <trkpt lat="43.39155" lon="5.92143">
        <ele>511.700012</ele>
        <time>2012-05-09T15:00:44Z</time>
      </trkpt>
      <trkpt lat="43.39159" lon="5.92152">
        <ele>511.700012</ele>
        <time>2012-05-09T15:00:51Z</time>
      </trkpt>
      <trkpt lat="43.3916" lon="5.92154">
        <ele>511.5</ele>
        <time>2012-05-09T15:00:52Z</time>
      </trkpt>
      <trkpt lat="43.39166" lon="5.92174">
        <ele>511.100006</ele>
        <time>2012-05-09T15:01:06Z</time>
      </trkpt>
      <trkpt lat="43.39169" lon="5.92185">
        <ele>511.100006</ele>
        <time>2012-05-09T15:01:14Z</time>
      </trkpt>
      <trkpt lat="43.39173" lon="5.92195">
        <ele>511.5</ele>
        <time>2012-05-09T15:01:22Z</time>
      </trkpt>
      <trkpt lat="43.39178" lon="5.92205">
        <ele>511.399994</ele>
        <time>2012-05-09T15:01:30Z</time>
      </trkpt>
      <trkpt lat="43.39181" lon="5.92216">
        <ele>511.100006</ele>
        <time>2012-05-09T15:01:38Z</time>
      </trkpt>
      <trkpt lat="43.39184" lon="5.92226">
        <ele>511.100006</ele>
        <time>2012-05-09T15:01:45Z</time>
      </trkpt>
      <trkpt lat="43.39187" lon="5.92237">
        <ele>511.299988</ele>
        <time>2012-05-09T15:01:53Z</time>
      </trkpt>
      <trkpt lat="43.39188" lon="5.92238">
        <ele>511.299988</ele>
        <time>2012-05-09T15:01:54Z</time>
      </trkpt>
      <trkpt lat="43.39194" lon="5.9226">
        <ele>510.700012</ele>
        <time>2012-05-09T15:02:09Z</time>
      </trkpt>
      <trkpt lat="43.39197" lon="5.9227">
        <ele>511</ele>
        <time>2012-05-09T15:02:16Z</time>
      </trkpt>
      <trkpt lat="43.392" lon="5.92281">
        <ele>511</ele>
        <time>2012-05-09T15:02:23Z</time>
      </trkpt>
      <trkpt lat="43.39206" lon="5.9229">
        <ele>511.100006</ele>
        <time>2012-05-09T15:02:31Z</time>
      </trkpt>
      <trkpt lat="43.39209" lon="5.92302">
        <ele>511.5</ele>
        <time>2012-05-09T15:02:40Z</time>
      </trkpt>
      <trkpt lat="43.3921" lon="5.92313">
        <ele>511.799988</ele>
        <time>2012-05-09T15:02:47Z</time>
      </trkpt>
      <trkpt lat="43.39211" lon="5.92324">
        <ele>510.899994</ele>
        <time>2012-05-09T15:02:55Z</time>
      </trkpt>
      <trkpt lat="43.39211" lon="5.92325">
        <ele>510.899994</ele>
        <time>2012-05-09T15:02:56Z</time>
      </trkpt>
      <trkpt lat="43.39216" lon="5.92347">
        <ele>511.600006</ele>
        <time>2012-05-09T15:03:11Z</time>
      </trkpt>
      <trkpt lat="43.39218" lon="5.92357">
        <ele>511.200012</ele>
        <time>2012-05-09T15:03:19Z</time>
      </trkpt>
      <trkpt lat="43.39221" lon="5.92368">
        <ele>511.299988</ele>
        <time>2012-05-09T15:03:27Z</time>
      </trkpt>
      <trkpt lat="43.39225" lon="5.92379">
        <ele>511.700012</ele>
        <time>2012-05-09T15:03:36Z</time>
      </trkpt>
      <trkpt lat="43.39229" lon="5.92388">
        <ele>512.400024</ele>
        <time>2012-05-09T15:03:44Z</time>
      </trkpt>
      <trkpt lat="43.39232" lon="5.92399">
        <ele>513.400024</ele>
        <time>2012-05-09T15:03:52Z</time>
      </trkpt>
      <trkpt lat="43.39232" lon="5.9241">
        <ele>513.200012</ele>
        <time>2012-05-09T15:03:59Z</time>
      </trkpt>
      <trkpt lat="43.39232" lon="5.92412">
        <ele>513.400024</ele>
        <time>2012-05-09T15:04:00Z</time>
      </trkpt>
      <trkpt lat="43.39234" lon="5.92433">
        <ele>512.599976</ele>
        <time>2012-05-09T15:04:15Z</time>
      </trkpt>
      <trkpt lat="43.39236" lon="5.92444">
        <ele>512.900024</ele>
        <time>2012-05-09T15:04:22Z</time>
      </trkpt>
      <trkpt lat="43.39239" lon="5.92455">
        <ele>513</ele>
        <time>2012-05-09T15:04:30Z</time>
      </trkpt>
      <trkpt lat="43.39244" lon="5.92465">
        <ele>513.299988</ele>
        <time>2012-05-09T15:04:38Z</time>
      </trkpt>
      <trkpt lat="43.39248" lon="5.92475">
        <ele>514.099976</ele>
        <time>2012-05-09T15:04:48Z</time>
      </trkpt>
      <trkpt lat="43.39253" lon="5.92484">
        <ele>514.700012</ele>
        <time>2012-05-09T15:04:58Z</time>
      </trkpt>
      <trkpt lat="43.39258" lon="5.92494">
        <ele>514.799988</ele>
        <time>2012-05-09T15:05:08Z</time>
      </trkpt>
      <trkpt lat="43.39258" lon="5.92495">
        <ele>514.799988</ele>
        <time>2012-05-09T15:05:09Z</time>
      </trkpt>
      <trkpt lat="43.39268" lon="5.92511">
        <ele>514.599976</ele>
        <time>2012-05-09T15:05:30Z</time>
      </trkpt>
      <trkpt lat="43.39276" lon="5.92517">
        <ele>513.799988</ele>
        <time>2012-05-09T15:06:02Z</time>
      </trkpt>
      <trkpt lat="43.39281" lon="5.92526">
        <ele>514.099976</ele>
        <time>2012-05-09T15:06:13Z</time>
      </trkpt>
      <trkpt lat="43.39281" lon="5.92528">
        <ele>514.099976</ele>
        <time>2012-05-09T15:06:14Z</time>
      </trkpt>
      <trkpt lat="43.39279" lon="5.92547">
        <ele>513.200012</ele>
        <time>2012-05-09T15:06:38Z</time>
      </trkpt>
      <trkpt lat="43.39272" lon="5.92554">
        <ele>513.200012</ele>
        <time>2012-05-09T15:06:48Z</time>
      </trkpt>
      <trkpt lat="43.39266" lon="5.92563">
        <ele>512.599976</ele>
        <time>2012-05-09T15:07:02Z</time>
      </trkpt>
      <trkpt lat="43.39269" lon="5.92552">
        <ele>512.900024</ele>
        <time>2012-05-09T15:07:23Z</time>
      </trkpt>
      <trkpt lat="43.3927" lon="5.92551">
        <ele>513.099976</ele>
        <time>2012-05-09T15:07:24Z</time>
      </trkpt>
      <trkpt lat="43.39276" lon="5.92531">
        <ele>514.200012</ele>
        <time>2012-05-09T15:07:50Z</time>
      </trkpt>
      <trkpt lat="43.39269" lon="5.92526">
        <ele>515.200012</ele>
        <time>2012-05-09T15:08:06Z</time>
      </trkpt>
      <trkpt lat="43.3926" lon="5.92527">
        <ele>515.900024</ele>
        <time>2012-05-09T15:08:20Z</time>
      </trkpt>
      <trkpt lat="43.39267" lon="5.92521">
        <ele>516.200012</ele>
        <time>2012-05-09T15:09:02Z</time>
      </trkpt>
      <trkpt lat="43.39268" lon="5.92521">
        <ele>516</ele>
        <time>2012-05-09T15:09:03Z</time>
      </trkpt>
      <trkpt lat="43.39283" lon="5.92514">
        <ele>512.700012</ele>
        <time>2012-05-09T15:14:07Z</time>
      </trkpt>
      <trkpt lat="43.39283" lon="5.92514">
        <ele>512.799988</ele>
        <time>2012-05-09T15:14:08Z</time>
      </trkpt>
      <trkpt lat="43.39282" lon="5.92527">
        <ele>514.299988</ele>
        <time>2012-05-09T15:21:07Z</time>
      </trkpt>
      <trkpt lat="43.39276" lon="5.92547">
        <ele>514.200012</ele>
        <time>2012-05-09T15:23:12Z</time>
      </trkpt>
      <trkpt lat="43.39276" lon="5.92547">
        <ele>514.400024</ele>
        <time>2012-05-09T15:23:13Z</time>
      </trkpt>
      <trkpt lat="43.39279" lon="5.92571">
        <ele>512</ele>
        <time>2012-05-09T15:24:13Z</time>
      </trkpt>
      <trkpt lat="43.39279" lon="5.92571">
        <ele>512</ele>
        <time>2012-05-09T15:24:14Z</time>
      </trkpt>
      <trkpt lat="43.39286" lon="5.9255">
        <ele>507.700012</ele>
        <time>2012-05-09T15:24:53Z</time>
      </trkpt>
      <trkpt lat="43.3929" lon="5.92539">
        <ele>505</ele>
        <time>2012-05-09T15:25:14Z</time>
      </trkpt>
      <trkpt lat="43.39291" lon="5.92539">
        <ele>504.899994</ele>
        <time>2012-05-09T15:25:15Z</time>
      </trkpt>
      <trkpt lat="43.39297" lon="5.92562">
        <ele>500.5</ele>
        <time>2012-05-09T15:25:46Z</time>
      </trkpt>
      <trkpt lat="43.39297" lon="5.92574">
        <ele>497.799988</ele>
        <time>2012-05-09T15:26:01Z</time>
      </trkpt>
      <trkpt lat="43.393" lon="5.92585">
        <ele>496</ele>
        <time>2012-05-09T15:26:14Z</time>
      </trkpt>
      <trkpt lat="43.39301" lon="5.92597">
        <ele>494.200012</ele>
        <time>2012-05-09T15:26:25Z</time>
      </trkpt>
      <trkpt lat="43.39301" lon="5.92598">
        <ele>494</ele>
        <time>2012-05-09T15:26:26Z</time>
      </trkpt>
      <trkpt lat="43.39298" lon="5.92619">
        <ele>491.100006</ele>
        <time>2012-05-09T15:26:47Z</time>
      </trkpt>
      <trkpt lat="43.39298" lon="5.92632">
        <ele>488.799988</ele>
        <time>2012-05-09T15:26:59Z</time>
      </trkpt>
      <trkpt lat="43.39302" lon="5.92642">
        <ele>487</ele>
        <time>2012-05-09T15:27:12Z</time>
      </trkpt>
      <trkpt lat="43.39302" lon="5.92654">
        <ele>485.299988</ele>
        <time>2012-05-09T15:27:24Z</time>
      </trkpt>
      <trkpt lat="43.393" lon="5.92666">
        <ele>482.700012</ele>
        <time>2012-05-09T15:27:38Z</time>
      </trkpt>
      <trkpt lat="43.393" lon="5.92668">
        <ele>482.600006</ele>
        <time>2012-05-09T15:27:39Z</time>
      </trkpt>
      <trkpt lat="43.3929" lon="5.92685">
        <ele>480</ele>
        <time>2012-05-09T15:27:57Z</time>
      </trkpt>
      <trkpt lat="43.39296" lon="5.92677">
        <ele>473.200012</ele>
        <time>2012-05-09T15:28:41Z</time>
      </trkpt>
      <trkpt lat="43.39296" lon="5.92676">
        <ele>473.200012</ele>
        <time>2012-05-09T15:28:42Z</time>
      </trkpt>
      <trkpt lat="43.39309" lon="5.92662">
        <ele>470.5</ele>
        <time>2012-05-09T15:29:08Z</time>
      </trkpt>
      <trkpt lat="43.39316" lon="5.92655">
        <ele>469.200012</ele>
        <time>2012-05-09T15:29:21Z</time>
      </trkpt>
      <trkpt lat="43.39323" lon="5.92649">
        <ele>467.600006</ele>
        <time>2012-05-09T15:29:30Z</time>
      </trkpt>
      <trkpt lat="43.39328" lon="5.92639">
        <ele>466.5</ele>
        <time>2012-05-09T15:29:38Z</time>
      </trkpt>
      <trkpt lat="43.39335" lon="5.92632">
        <ele>465.799988</ele>
        <time>2012-05-09T15:29:48Z</time>
      </trkpt>
      <trkpt lat="43.39336" lon="5.92631">
        <ele>465.799988</ele>
        <time>2012-05-09T15:29:49Z</time>
      </trkpt>
      <trkpt lat="43.39348" lon="5.92615">
        <ele>463.600006</ele>
        <time>2012-05-09T15:30:06Z</time>
      </trkpt>
      <trkpt lat="43.39354" lon="5.92607">
        <ele>461.899994</ele>
        <time>2012-05-09T15:30:17Z</time>
      </trkpt>
      <trkpt lat="43.39359" lon="5.92598">
        <ele>460.600006</ele>
        <time>2012-05-09T15:30:25Z</time>
      </trkpt>
      <trkpt lat="43.39366" lon="5.92591">
        <ele>458.399994</ele>
        <time>2012-05-09T15:30:38Z</time>
      </trkpt>
      <trkpt lat="43.39372" lon="5.92584">
        <ele>456.700012</ele>
        <time>2012-05-09T15:30:49Z</time>
      </trkpt>
      <trkpt lat="43.39373" lon="5.92583">
        <ele>456.399994</ele>
        <time>2012-05-09T15:30:50Z</time>
      </trkpt>
      <trkpt lat="43.39385" lon="5.92567">
        <ele>453.299988</ele>
        <time>2012-05-09T15:31:14Z</time>
      </trkpt>
      <trkpt lat="43.39391" lon="5.92559">
        <ele>451.899994</ele>
        <time>2012-05-09T15:31:24Z</time>
      </trkpt>
      <trkpt lat="43.39399" lon="5.92553">
        <ele>449.5</ele>
        <time>2012-05-09T15:31:35Z</time>
      </trkpt>
      <trkpt lat="43.39404" lon="5.92544">
        <ele>447.899994</ele>
        <time>2012-05-09T15:31:45Z</time>
      </trkpt>
      <trkpt lat="43.39409" lon="5.92535">
        <ele>446.799988</ele>
        <time>2012-05-09T15:31:52Z</time>
      </trkpt>
      <trkpt lat="43.3941" lon="5.92534">
        <ele>446.799988</ele>
        <time>2012-05-09T15:31:53Z</time>
      </trkpt>
      <trkpt lat="43.39419" lon="5.92517">
        <ele>443.399994</ele>
        <time>2012-05-09T15:32:11Z</time>
      </trkpt>
      <trkpt lat="43.39424" lon="5.92507">
        <ele>441.799988</ele>
        <time>2012-05-09T15:32:21Z</time>
      </trkpt>
      <trkpt lat="43.39425" lon="5.92495">
        <ele>440.600006</ele>
        <time>2012-05-09T15:32:31Z</time>
      </trkpt>
      <trkpt lat="43.39422" lon="5.92484">
        <ele>439.799988</ele>
        <time>2012-05-09T15:32:42Z</time>
      </trkpt>
      <trkpt lat="43.39417" lon="5.92475">
        <ele>438.5</ele>
        <time>2012-05-09T15:32:51Z</time>
      </trkpt>
      <trkpt lat="43.39415" lon="5.92463">
        <ele>437.600006</ele>
        <time>2012-05-09T15:33:00Z</time>
      </trkpt>
      <trkpt lat="43.39415" lon="5.92461">
        <ele>437.600006</ele>
        <time>2012-05-09T15:33:01Z</time>
      </trkpt>
      <trkpt lat="43.39419" lon="5.9245">
        <ele>431.899994</ele>
        <time>2012-05-09T15:33:28Z</time>
      </trkpt>
      <trkpt lat="43.39427" lon="5.92455">
        <ele>429.899994</ele>
        <time>2012-05-09T15:33:38Z</time>
      </trkpt>
      <trkpt lat="43.39435" lon="5.9246">
        <ele>427.899994</ele>
        <time>2012-05-09T15:33:50Z</time>
      </trkpt>
      <trkpt lat="43.39444" lon="5.92461">
        <ele>425.5</ele>
        <time>2012-05-09T15:34:01Z</time>
      </trkpt>
      <trkpt lat="43.39444" lon="5.92461">
        <ele>425.299988</ele>
        <time>2012-05-09T15:34:02Z</time>
      </trkpt>
      <trkpt lat="43.39461" lon="5.92464">
        <ele>421.700012</ele>
        <time>2012-05-09T15:34:25Z</time>
      </trkpt>
      <trkpt lat="43.39469" lon="5.92468">
        <ele>420.5</ele>
        <time>2012-05-09T15:34:36Z</time>
      </trkpt>
      <trkpt lat="43.39478" lon="5.92471">
        <ele>418.899994</ele>
        <time>2012-05-09T15:34:46Z</time>
      </trkpt>
      <trkpt lat="43.39485" lon="5.92476">
        <ele>416.600006</ele>
        <time>2012-05-09T15:34:55Z</time>
      </trkpt>
      <trkpt lat="43.39493" lon="5.92479">
        <ele>415.200012</ele>
        <time>2012-05-09T15:35:06Z</time>
      </trkpt>
      <trkpt lat="43.39494" lon="5.9248">
        <ele>415</ele>
        <time>2012-05-09T15:35:07Z</time>
      </trkpt>
      <trkpt lat="43.39509" lon="5.92473">
        <ele>411.299988</ele>
        <time>2012-05-09T15:35:27Z</time>
      </trkpt>
      <trkpt lat="43.39516" lon="5.92468">
        <ele>408.5</ele>
        <time>2012-05-09T15:35:39Z</time>
      </trkpt>
      <trkpt lat="43.39524" lon="5.92465">
        <ele>405.899994</ele>
        <time>2012-05-09T15:35:54Z</time>
      </trkpt>
      <trkpt lat="43.39533" lon="5.92464">
        <ele>403.799988</ele>
        <time>2012-05-09T15:36:04Z</time>
      </trkpt>
      <trkpt lat="43.3954" lon="5.92458">
        <ele>401.399994</ele>
        <time>2012-05-09T15:36:15Z</time>
      </trkpt>
      <trkpt lat="43.39541" lon="5.92458">
        <ele>401.200012</ele>
        <time>2012-05-09T15:36:16Z</time>
      </trkpt>
      <trkpt lat="43.39557" lon="5.92455">
        <ele>397.200012</ele>
        <time>2012-05-09T15:36:37Z</time>
      </trkpt>
      <trkpt lat="43.39566" lon="5.92454">
        <ele>395.600006</ele>
        <time>2012-05-09T15:36:45Z</time>
      </trkpt>
      <trkpt lat="43.39572" lon="5.92446">
        <ele>394.399994</ele>
        <time>2012-05-09T15:36:54Z</time>
      </trkpt>
      <trkpt lat="43.39577" lon="5.92437">
        <ele>393.399994</ele>
        <time>2012-05-09T15:37:03Z</time>
      </trkpt>
      <trkpt lat="43.39584" lon="5.92432">
        <ele>392.299988</ele>
        <time>2012-05-09T15:37:12Z</time>
      </trkpt>
      <trkpt lat="43.39592" lon="5.92431">
        <ele>390.600006</ele>
        <time>2012-05-09T15:37:21Z</time>
      </trkpt>
      <trkpt lat="43.39593" lon="5.92432">
        <ele>390.399994</ele>
        <time>2012-05-09T15:37:22Z</time>
      </trkpt>
      <trkpt lat="43.39607" lon="5.92427">
        <ele>387.200012</ele>
        <time>2012-05-09T15:37:45Z</time>
      </trkpt>
      <trkpt lat="43.39614" lon="5.92421">
        <ele>385.399994</ele>
        <time>2012-05-09T15:37:56Z</time>
      </trkpt>
      <trkpt lat="43.39619" lon="5.92412">
        <ele>383.600006</ele>
        <time>2012-05-09T15:38:06Z</time>
      </trkpt>
      <trkpt lat="43.39625" lon="5.92403">
        <ele>382.100006</ele>
        <time>2012-05-09T15:38:17Z</time>
      </trkpt>
      <trkpt lat="43.39631" lon="5.92395">
        <ele>379.600006</ele>
        <time>2012-05-09T15:38:28Z</time>
      </trkpt>
      <trkpt lat="43.39632" lon="5.92395">
        <ele>379.100006</ele>
        <time>2012-05-09T15:38:29Z</time>
      </trkpt>
      <trkpt lat="43.39647" lon="5.92391">
        <ele>375.5</ele>
        <time>2012-05-09T15:38:50Z</time>
      </trkpt>
      <trkpt lat="43.39655" lon="5.92386">
        <ele>372.700012</ele>
        <time>2012-05-09T15:38:59Z</time>
      </trkpt>
      <trkpt lat="43.39663" lon="5.92381">
        <ele>370.899994</ele>
        <time>2012-05-09T15:39:10Z</time>
      </trkpt>
      <trkpt lat="43.3967" lon="5.92374">
        <ele>370.600006</ele>
        <time>2012-05-09T15:39:19Z</time>
      </trkpt>
      <trkpt lat="43.39677" lon="5.92367">
        <ele>369</ele>
        <time>2012-05-09T15:39:27Z</time>
      </trkpt>
      <trkpt lat="43.39683" lon="5.9236">
        <ele>367.399994</ele>
        <time>2012-05-09T15:39:36Z</time>
      </trkpt>
      <trkpt lat="43.39684" lon="5.92359">
        <ele>367</ele>
        <time>2012-05-09T15:39:37Z</time>
      </trkpt>
      <trkpt lat="43.39698" lon="5.9235">
        <ele>364.700012</ele>
        <time>2012-05-09T15:39:53Z</time>
      </trkpt>
      <trkpt lat="43.39706" lon="5.92344">
        <ele>363.5</ele>
        <time>2012-05-09T15:40:03Z</time>
      </trkpt>
      <trkpt lat="43.39713" lon="5.92338">
        <ele>361.799988</ele>
        <time>2012-05-09T15:40:12Z</time>
      </trkpt>
      <trkpt lat="43.3972" lon="5.92332">
        <ele>361.200012</ele>
        <time>2012-05-09T15:40:22Z</time>
      </trkpt>
      <trkpt lat="43.39724" lon="5.92321">
        <ele>359.399994</ele>
        <time>2012-05-09T15:40:34Z</time>
      </trkpt>
      <trkpt lat="43.3973" lon="5.92312">
        <ele>358.600006</ele>
        <time>2012-05-09T15:40:41Z</time>
      </trkpt>
      <trkpt lat="43.39731" lon="5.92311">
        <ele>358.600006</ele>
        <time>2012-05-09T15:40:42Z</time>
      </trkpt>
      <trkpt lat="43.39743" lon="5.92298">
        <ele>356.799988</ele>
        <time>2012-05-09T15:41:02Z</time>
      </trkpt>
      <trkpt lat="43.39751" lon="5.92291">
        <ele>355.5</ele>
        <time>2012-05-09T15:41:21Z</time>
      </trkpt>
      <trkpt lat="43.39758" lon="5.92298">
        <ele>354.299988</ele>
        <time>2012-05-09T15:43:00Z</time>
      </trkpt>
      <trkpt lat="43.39758" lon="5.92298">
        <ele>354.399994</ele>
        <time>2012-05-09T15:43:01Z</time>
      </trkpt>
      <trkpt lat="43.39767" lon="5.92291">
        <ele>354.799988</ele>
        <time>2012-05-09T15:44:32Z</time>
      </trkpt>
      <trkpt lat="43.3978" lon="5.9228">
        <ele>353.700012</ele>
        <time>2012-05-09T15:44:46Z</time>
      </trkpt>
      <trkpt lat="43.39788" lon="5.92275">
        <ele>352.600006</ele>
        <time>2012-05-09T15:44:53Z</time>
      </trkpt>
      <trkpt lat="43.39795" lon="5.9227">
        <ele>351.399994</ele>
        <time>2012-05-09T15:45:00Z</time>
      </trkpt>
      <trkpt lat="43.39802" lon="5.92265">
        <ele>350.700012</ele>
        <time>2012-05-09T15:45:07Z</time>
      </trkpt>
      <trkpt lat="43.39809" lon="5.92258">
        <ele>349.200012</ele>
        <time>2012-05-09T15:45:13Z</time>
      </trkpt>
      <trkpt lat="43.39816" lon="5.92252">
        <ele>347.899994</ele>
        <time>2012-05-09T15:45:20Z</time>
      </trkpt>
      <trkpt lat="43.39822" lon="5.92244">
        <ele>346.899994</ele>
        <time>2012-05-09T15:45:28Z</time>
      </trkpt>
      <trkpt lat="43.39829" lon="5.92237">
        <ele>345.799988</ele>
        <time>2012-05-09T15:45:36Z</time>
      </trkpt>
      <trkpt lat="43.3983" lon="5.92236">
        <ele>345.700012</ele>
        <time>2012-05-09T15:45:37Z</time>
      </trkpt>
      <trkpt lat="43.39843" lon="5.92222">
        <ele>343.899994</ele>
        <time>2012-05-09T15:45:51Z</time>
      </trkpt>
      <trkpt lat="43.3985" lon="5.92215">
        <ele>342.700012</ele>
        <time>2012-05-09T15:45:59Z</time>
      </trkpt>
      <trkpt lat="43.39857" lon="5.9221">
        <ele>341.899994</ele>
        <time>2012-05-09T15:46:07Z</time>
      </trkpt>
      <trkpt lat="43.39864" lon="5.92203">
        <ele>340.899994</ele>
        <time>2012-05-09T15:46:15Z</time>
      </trkpt>
      <trkpt lat="43.39871" lon="5.92199">
        <ele>339.200012</ele>
        <time>2012-05-09T15:46:22Z</time>
      </trkpt>
      <trkpt lat="43.39879" lon="5.92194">
        <ele>338.5</ele>
        <time>2012-05-09T15:46:30Z</time>
      </trkpt>
      <trkpt lat="43.39887" lon="5.9219">
        <ele>337.100006</ele>
        <time>2012-05-09T15:46:37Z</time>
      </trkpt>
      <trkpt lat="43.39888" lon="5.9219">
        <ele>336.899994</ele>
        <time>2012-05-09T15:46:38Z</time>
      </trkpt>
      <trkpt lat="43.39902" lon="5.92178">
        <ele>333.600006</ele>
        <time>2012-05-09T15:46:53Z</time>
      </trkpt>
      <trkpt lat="43.3991" lon="5.92175">
        <ele>332.299988</ele>
        <time>2012-05-09T15:47:00Z</time>
      </trkpt>
      <trkpt lat="43.39918" lon="5.92171">
        <ele>331.299988</ele>
        <time>2012-05-09T15:47:08Z</time>
      </trkpt>
      <trkpt lat="43.39926" lon="5.92166">
        <ele>330.799988</ele>
        <time>2012-05-09T15:47:16Z</time>
      </trkpt>
      <trkpt lat="43.39934" lon="5.92163">
        <ele>331</ele>
        <time>2012-05-09T15:47:23Z</time>
      </trkpt>
      <trkpt lat="43.39942" lon="5.92161">
        <ele>330.600006</ele>
        <time>2012-05-09T15:47:31Z</time>
      </trkpt>
      <trkpt lat="43.3995" lon="5.9216">
        <ele>330.899994</ele>
        <time>2012-05-09T15:47:40Z</time>
      </trkpt>
      <trkpt lat="43.39951" lon="5.92159">
        <ele>330.899994</ele>
        <time>2012-05-09T15:47:41Z</time>
      </trkpt>
      <trkpt lat="43.39968" lon="5.92162">
        <ele>331.299988</ele>
        <time>2012-05-09T15:47:53Z</time>
      </trkpt>
      <trkpt lat="43.39975" lon="5.92165">
        <ele>331.299988</ele>
        <time>2012-05-09T15:47:57Z</time>
      </trkpt>
      <trkpt lat="43.39984" lon="5.92168">
        <ele>332.200012</ele>
        <time>2012-05-09T15:48:03Z</time>
      </trkpt>
      <trkpt lat="43.39992" lon="5.9217">
        <ele>332.5</ele>
        <time>2012-05-09T15:48:10Z</time>
      </trkpt>
      <trkpt lat="43.4" lon="5.92173">
        <ele>333.299988</ele>
        <time>2012-05-09T15:48:18Z</time>
      </trkpt>
      <trkpt lat="43.40008" lon="5.92177">
        <ele>333.799988</ele>
        <time>2012-05-09T15:48:26Z</time>
      </trkpt>
      <trkpt lat="43.40014" lon="5.92185">
        <ele>334.700012</ele>
        <time>2012-05-09T15:48:33Z</time>
      </trkpt>
      <trkpt lat="43.40021" lon="5.92189">
        <ele>335.100006</ele>
        <time>2012-05-09T15:48:39Z</time>
      </trkpt>
      <trkpt lat="43.40029" lon="5.92194">
        <ele>335.700012</ele>
        <time>2012-05-09T15:48:46Z</time>
      </trkpt>
      <trkpt lat="43.40029" lon="5.92195">
        <ele>335.700012</ele>
        <time>2012-05-09T15:48:47Z</time>
      </trkpt>
      <trkpt lat="43.40044" lon="5.92202">
        <ele>337.200012</ele>
        <time>2012-05-09T15:49:00Z</time>
      </trkpt>
      <trkpt lat="43.40053" lon="5.92207">
        <ele>337.200012</ele>
        <time>2012-05-09T15:49:08Z</time>
      </trkpt>
      <trkpt lat="43.40062" lon="5.92209">
        <ele>337.200012</ele>
        <time>2012-05-09T15:49:16Z</time>
      </trkpt>
      <trkpt lat="43.4007" lon="5.92207">
        <ele>337</ele>
        <time>2012-05-09T15:49:23Z</time>
      </trkpt>
      <trkpt lat="43.40079" lon="5.92206">
        <ele>336.5</ele>
        <time>2012-05-09T15:49:30Z</time>
      </trkpt>
      <trkpt lat="43.40087" lon="5.92204">
        <ele>335.299988</ele>
        <time>2012-05-09T15:49:38Z</time>
      </trkpt>
      <trkpt lat="43.40096" lon="5.92202">
        <ele>334.200012</ele>
        <time>2012-05-09T15:49:45Z</time>
      </trkpt>
      <trkpt lat="43.40104" lon="5.92199">
        <ele>332.799988</ele>
        <time>2012-05-09T15:49:53Z</time>
      </trkpt>
      <trkpt lat="43.40105" lon="5.92199">
        <ele>332.600006</ele>
        <time>2012-05-09T15:49:54Z</time>
      </trkpt>
      <trkpt lat="43.40121" lon="5.92199">
        <ele>330.299988</ele>
        <time>2012-05-09T15:50:08Z</time>
      </trkpt>
      <trkpt lat="43.40129" lon="5.92198">
        <ele>329</ele>
        <time>2012-05-09T15:50:14Z</time>
      </trkpt>
      <trkpt lat="43.40138" lon="5.922">
        <ele>328.299988</ele>
        <time>2012-05-09T15:50:21Z</time>
      </trkpt>
      <trkpt lat="43.40146" lon="5.92199">
        <ele>328.100006</ele>
        <time>2012-05-09T15:50:27Z</time>
      </trkpt>
      <trkpt lat="43.40153" lon="5.92204">
        <ele>328.399994</ele>
        <time>2012-05-09T15:50:34Z</time>
      </trkpt>
      <trkpt lat="43.40161" lon="5.92208">
        <ele>328.600006</ele>
        <time>2012-05-09T15:50:39Z</time>
      </trkpt>
      <trkpt lat="43.4017" lon="5.9221">
        <ele>329.100006</ele>
        <time>2012-05-09T15:50:46Z</time>
      </trkpt>
      <trkpt lat="43.40178" lon="5.92212">
        <ele>329.799988</ele>
        <time>2012-05-09T15:50:55Z</time>
      </trkpt>
      <trkpt lat="43.40179" lon="5.92212">
        <ele>329.899994</ele>
        <time>2012-05-09T15:50:56Z</time>
      </trkpt>
      <trkpt lat="43.40195" lon="5.92216">
        <ele>329.899994</ele>
        <time>2012-05-09T15:51:08Z</time>
      </trkpt>
      <trkpt lat="43.40203" lon="5.92213">
        <ele>329.299988</ele>
        <time>2012-05-09T15:51:15Z</time>
      </trkpt>
      <trkpt lat="43.4021" lon="5.92212">
        <ele>328.399994</ele>
        <time>2012-05-09T15:51:21Z</time>
      </trkpt>
      <trkpt lat="43.40218" lon="5.92211">
        <ele>328.200012</ele>
        <time>2012-05-09T15:51:27Z</time>
      </trkpt>
      <trkpt lat="43.40226" lon="5.92207">
        <ele>327.5</ele>
        <time>2012-05-09T15:51:34Z</time>
      </trkpt>
      <trkpt lat="43.40235" lon="5.92206">
        <ele>327.5</ele>
        <time>2012-05-09T15:51:41Z</time>
      </trkpt>
      <trkpt lat="43.40243" lon="5.92206">
        <ele>327.799988</ele>
        <time>2012-05-09T15:51:47Z</time>
      </trkpt>
      <trkpt lat="43.40251" lon="5.92207">
        <ele>328.100006</ele>
        <time>2012-05-09T15:51:54Z</time>
      </trkpt>
      <trkpt lat="43.4026" lon="5.9221">
        <ele>328.399994</ele>
        <time>2012-05-09T15:52:01Z</time>
      </trkpt>
      <trkpt lat="43.40261" lon="5.9221">
        <ele>328.600006</ele>
        <time>2012-05-09T15:52:02Z</time>
      </trkpt>
      <trkpt lat="43.40276" lon="5.92212">
        <ele>328.899994</ele>
        <time>2012-05-09T15:52:14Z</time>
      </trkpt>
      <trkpt lat="43.40285" lon="5.9221">
        <ele>328.200012</ele>
        <time>2012-05-09T15:52:22Z</time>
      </trkpt>
      <trkpt lat="43.40293" lon="5.92206">
        <ele>327.5</ele>
        <time>2012-05-09T15:52:29Z</time>
      </trkpt>
      <trkpt lat="43.403" lon="5.92201">
        <ele>327.100006</ele>
        <time>2012-05-09T15:52:36Z</time>
      </trkpt>
      <trkpt lat="43.40308" lon="5.92199">
        <ele>326.399994</ele>
        <time>2012-05-09T15:52:43Z</time>
      </trkpt>
      <trkpt lat="43.40315" lon="5.92198">
        <ele>326.100006</ele>
        <time>2012-05-09T15:52:48Z</time>
      </trkpt>
      <trkpt lat="43.40324" lon="5.92199">
        <ele>326.100006</ele>
        <time>2012-05-09T15:52:55Z</time>
      </trkpt>
      <trkpt lat="43.40332" lon="5.92203">
        <ele>326.100006</ele>
        <time>2012-05-09T15:53:02Z</time>
      </trkpt>
      <trkpt lat="43.40333" lon="5.92203">
        <ele>326.100006</ele>
        <time>2012-05-09T15:53:03Z</time>
      </trkpt>
      <trkpt lat="43.40349" lon="5.922">
        <ele>326.600006</ele>
        <time>2012-05-09T15:53:16Z</time>
      </trkpt>
      <trkpt lat="43.40357" lon="5.92202">
        <ele>326.799988</ele>
        <time>2012-05-09T15:53:23Z</time>
      </trkpt>
      <trkpt lat="43.40364" lon="5.92207">
        <ele>327.399994</ele>
        <time>2012-05-09T15:53:29Z</time>
      </trkpt>
      <trkpt lat="43.40372" lon="5.92213">
        <ele>327.399994</ele>
        <time>2012-05-09T15:53:36Z</time>
      </trkpt>
      <trkpt lat="43.4038" lon="5.92217">
        <ele>327.5</ele>
        <time>2012-05-09T15:53:43Z</time>
      </trkpt>
      <trkpt lat="43.40386" lon="5.92225">
        <ele>326.700012</ele>
        <time>2012-05-09T15:53:49Z</time>
      </trkpt>
      <trkpt lat="43.40392" lon="5.92234">
        <ele>326.700012</ele>
        <time>2012-05-09T15:53:55Z</time>
      </trkpt>
      <trkpt lat="43.40394" lon="5.92245">
        <ele>325.5</ele>
        <time>2012-05-09T15:54:02Z</time>
      </trkpt>
      <trkpt lat="43.40399" lon="5.92254">
        <ele>324.5</ele>
        <time>2012-05-09T15:54:09Z</time>
      </trkpt>
      <trkpt lat="43.404" lon="5.92255">
        <ele>324.600006</ele>
        <time>2012-05-09T15:54:10Z</time>
      </trkpt>
      <trkpt lat="43.4041" lon="5.92271">
        <ele>322.799988</ele>
        <time>2012-05-09T15:54:24Z</time>
      </trkpt>
      <trkpt lat="43.40418" lon="5.92273">
        <ele>321.700012</ele>
        <time>2012-05-09T15:54:32Z</time>
      </trkpt>
      <trkpt lat="43.40426" lon="5.92274">
        <ele>320.899994</ele>
        <time>2012-05-09T15:54:38Z</time>
      </trkpt>
      <trkpt lat="43.40434" lon="5.9228">
        <ele>319.899994</ele>
        <time>2012-05-09T15:54:48Z</time>
      </trkpt>
      <trkpt lat="43.40442" lon="5.92284">
        <ele>317.100006</ele>
        <time>2012-05-09T15:55:02Z</time>
      </trkpt>
      <trkpt lat="43.40446" lon="5.92294">
        <ele>316.299988</ele>
        <time>2012-05-09T15:55:13Z</time>
      </trkpt>
      <trkpt lat="43.40447" lon="5.92295">
        <ele>315.899994</ele>
        <time>2012-05-09T15:55:14Z</time>
      </trkpt>
      <trkpt lat="43.40457" lon="5.92313">
        <ele>312.100006</ele>
        <time>2012-05-09T15:55:30Z</time>
      </trkpt>
      <trkpt lat="43.40465" lon="5.92316">
        <ele>309.700012</ele>
        <time>2012-05-09T15:55:41Z</time>
      </trkpt>
      <trkpt lat="43.40473" lon="5.92322">
        <ele>308.299988</ele>
        <time>2012-05-09T15:55:49Z</time>
      </trkpt>
      <trkpt lat="43.40481" lon="5.92323">
        <ele>305.899994</ele>
        <time>2012-05-09T15:56:00Z</time>
      </trkpt>
      <trkpt lat="43.40489" lon="5.92329">
        <ele>303.700012</ele>
        <time>2012-05-09T15:56:11Z</time>
      </trkpt>
      <trkpt lat="43.40497" lon="5.92333">
        <ele>302.5</ele>
        <time>2012-05-09T15:56:19Z</time>
      </trkpt>
      <trkpt lat="43.40498" lon="5.92333">
        <ele>302.299988</ele>
        <time>2012-05-09T15:56:20Z</time>
      </trkpt>
      <trkpt lat="43.40513" lon="5.92338">
        <ele>300.700012</ele>
        <time>2012-05-09T15:56:37Z</time>
      </trkpt>
      <trkpt lat="43.40521" lon="5.92334">
        <ele>300.600006</ele>
        <time>2012-05-09T15:56:45Z</time>
      </trkpt>
      <trkpt lat="43.40528" lon="5.92339">
        <ele>300.899994</ele>
        <time>2012-05-09T15:56:51Z</time>
      </trkpt>
      <trkpt lat="43.40534" lon="5.92346">
        <ele>300.5</ele>
        <time>2012-05-09T15:56:57Z</time>
      </trkpt>
      <trkpt lat="43.40539" lon="5.92356">
        <ele>299.799988</ele>
        <time>2012-05-09T15:57:08Z</time>
      </trkpt>
      <trkpt lat="43.40538" lon="5.92367">
        <ele>298.899994</ele>
        <time>2012-05-09T15:57:16Z</time>
      </trkpt>
      <trkpt lat="43.40541" lon="5.92378">
        <ele>299.100006</ele>
        <time>2012-05-09T15:57:23Z</time>
      </trkpt>
      <trkpt lat="43.40542" lon="5.92379">
        <ele>299</ele>
        <time>2012-05-09T15:57:24Z</time>
      </trkpt>
    </trkseg>
  </trk>
</gpx>